Wetterdaten: Samstag, 07.08.2021
Datum Zeit Temp. Aussen Temp. o. S. Temp +5cm Feuchte Auss Luftdruck Regen Sonnenschein Regendauer Solar Windben Empfang
07.08.2021 00:00 16,6 C 15,6 C 15,0 C 93 % 1005,2 hPa 0,0 l/m 0 min 0 min 0 W/m 12,9 km/h (3 Bft) 97,87 %
07.08.2021 00:02 16,6 C 15,6 C 15,0 C 93 % 1005,2 hPa 0,0 l/m 0 min 0 min 0 W/m 6,4 km/h (2 Bft) 97,56 %
07.08.2021 00:04 16,6 C 15,6 C 15,0 C 93 % 1005,2 hPa 0,0 l/m 0 min 0 min 0 W/m 12,9 km/h (3 Bft) 97,87 %
07.08.2021 00:07 16,6 C 15,6 C 15,0 C 93 % 1005,2 hPa 0,0 l/m 0 min 0 min 0 W/m 9,7 km/h (2 Bft) 95,71 %
07.08.2021 00:08 16,6 C 15,6 C 15,0 C 93 % 1005,2 hPa 0,0 l/m 0 min 1 min 0 W/m 6,4 km/h (2 Bft) 100,00 %
07.08.2021 00:10 16,6 C 15,6 C 15,0 C 93 % 1005,2 hPa 0,0 l/m 0 min 2 min 0 W/m 6,4 km/h (2 Bft) 97,87 %
07.08.2021 00:12 16,6 C 15,6 C 15,0 C 93 % 1005,2 hPa 0,0 l/m 0 min 0 min 0 W/m 3,2 km/h (1 Bft) 97,87 %
07.08.2021 00:14 16,6 C 15,6 C 15,0 C 93 % 1005,2 hPa 0,0 l/m 0 min 0 min 0 W/m 6,4 km/h (2 Bft) 97,87 %
07.08.2021 00:16 16,5 C 15,6 C 15,0 C 93 % 1005,2 hPa 0,0 l/m 0 min 0 min 0 W/m 6,4 km/h (2 Bft) 97,87 %
07.08.2021 00:18 16,6 C 15,6 C 15,6 C 93 % 1005,3 hPa 0,0 l/m 0 min 0 min 0 W/m 6,4 km/h (2 Bft) 100,00 %
07.08.2021 00:20 16,6 C 15,6 C 15,6 C 93 % 1005,2 hPa 0,0 l/m 0 min 0 min 0 W/m 6,4 km/h (2 Bft) 100,00 %
07.08.2021 00:22 16,6 C 15,6 C 15,6 C 93 % 1005,2 hPa 0,0 l/m 0 min 0 min 0 W/m 9,7 km/h (2 Bft) 100,00 %
07.08.2021 00:24 16,6 C 15,6 C 15,6 C 93 % 1005,2 hPa 0,0 l/m 0 min 0 min 0 W/m 6,4 km/h (2 Bft) 100,00 %
07.08.2021 00:26 16,5 C 15,6 C 15,6 C 93 % 1005,2 hPa 0,0 l/m 0 min 0 min 0 W/m 9,7 km/h (2 Bft) 100,00 %
07.08.2021 00:28 16,5 C 15,6 C 15,0 C 93 % 1005,1 hPa 0,0 l/m 0 min 0 min 0 W/m 6,4 km/h (2 Bft) 100,00 %
07.08.2021 00:30 16,5 C 15,6 C 15,6 C 93 % 1005,2 hPa 0,0 l/m 0 min 0 min 0 W/m 9,7 km/h (2 Bft) 100,00 %
07.08.2021 00:32 16,5 C 15,6 C 15,6 C 93 % 1005,2 hPa 0,0 l/m 0 min 0 min 0 W/m 12,9 km/h (3 Bft) 97,83 %
07.08.2021 00:34 16,5 C 15,6 C 15,6 C 94 % 1005,2 hPa 0,0 l/m 0 min 0 min 0 W/m 9,7 km/h (2 Bft) 100,00 %
07.08.2021 00:36 16,5 C 15,6 C 15,6 C 94 % 1005,2 hPa 0,0 l/m 0 min 0 min 0 W/m 9,7 km/h (2 Bft) 100,00 %
07.08.2021 00:38 16,5 C 15,6 C 15,0 C 94 % 1005,2 hPa 0,0 l/m 0 min 0 min 0 W/m 6,4 km/h (2 Bft) 100,00 %
07.08.2021 00:40 16,5 C 15,6 C 15,0 C 94 % 1005,2 hPa 0,0 l/m 0 min 0 min 0 W/m 3,2 km/h (1 Bft) 100,00 %
07.08.2021 00:42 16,5 C 15,6 C 15,0 C 94 % 1005,2 hPa 0,0 l/m 0 min 0 min 0 W/m 3,2 km/h (1 Bft) 100,00 %
07.08.2021 00:44 16,5 C 15,6 C 15,0 C 94 % 1005,2 hPa 0,0 l/m 0 min 0 min 0 W/m 6,4 km/h (2 Bft) 100,00 %
07.08.2021 00:46 16,5 C 15,6 C 15,6 C 94 % 1005,2 hPa 0,0 l/m 0 min 0 min 0 W/m 3,2 km/h (1 Bft) 100,00 %
07.08.2021 00:48 16,4 C 15,6 C 15,6 C 94 % 1005,2 hPa 0,0 l/m 0 min 0 min 0 W/m 3,2 km/h (1 Bft) 100,00 %
07.08.2021 00:50 16,4 C 15,6 C 15,6 C 94 % 1005,2 hPa 0,0 l/m 0 min 0 min 0 W/m 6,4 km/h (2 Bft) 100,00 %
07.08.2021 00:52 16,4 C 15,6 C 15,6 C 94 % 1005,2 hPa 0,0 l/m 0 min 0 min 0 W/m 6,4 km/h (2 Bft) 97,87 %
07.08.2021 00:54 16,5 C 15,6 C 15,6 C 94 % 1005,2 hPa 0,0 l/m 0 min 0 min 0 W/m 9,7 km/h (2 Bft) 100,00 %
07.08.2021 00:56 16,5 C 15,6 C 15,6 C 94 % 1005,2 hPa 0,0 l/m 0 min 0 min 0 W/m 9,7 km/h (2 Bft) 97,87 %
07.08.2021 00:58 16,5 C 15,6 C 15,6 C 94 % 1005,2 hPa 0,0 l/m 0 min 0 min 0 W/m 3,2 km/h (1 Bft) 100,00 %
07.08.2021 01:00 16,5 C 15,6 C 15,6 C 94 % 1005,2 hPa 0,0 l/m 0 min 0 min 0 W/m 6,4 km/h (2 Bft) 97,87 %
07.08.2021 01:02 16,5 C 15,6 C 15,6 C 94 % 1005,3 hPa 0,0 l/m 0 min 0 min 0 W/m 3,2 km/h (1 Bft) 100,00 %
07.08.2021 01:04 16,5 C 15,6 C 15,6 C 94 % 1005,3 hPa 0,0 l/m 0 min 0 min 0 W/m 3,2 km/h (1 Bft) 100,00 %
07.08.2021 01:06 16,5 C 15,6 C 15,6 C 94 % 1005,4 hPa 0,0 l/m 0 min 0 min 0 W/m 6,4 km/h (2 Bft) 100,00 %
07.08.2021 01:08 16,5 C 15,6 C 15,6 C 94 % 1005,5 hPa 0,2 l/m 0 min 2 min 0 W/m 6,4 km/h (2 Bft) 100,00 %
07.08.2021 01:10 16,5 C 15,6 C 15,6 C 94 % 1005,5 hPa 0,2 l/m 0 min 2 min 0 W/m 19,3 km/h (3 Bft) 100,00 %
07.08.2021 01:12 16,5 C 15,6 C 15,6 C 94 % 1005,4 hPa 0,0 l/m 0 min 2 min 0 W/m 6,4 km/h (2 Bft) 100,00 %
07.08.2021 01:14 16,5 C 15,6 C 15,6 C 94 % 1005,4 hPa 0,0 l/m 0 min 0 min 0 W/m 0,0 km/h (0 Bft) 100,00 %
07.08.2021 01:16 16,6 C 15,6 C 15,6 C 94 % 1005,3 hPa 0,0 l/m 0 min 0 min 0 W/m 3,2 km/h (1 Bft) 100,00 %
07.08.2021 01:18 16,6 C 15,6 C 15,6 C 94 % 1005,4 hPa 0,0 l/m 0 min 0 min 0 W/m 3,2 km/h (1 Bft) 100,00 %
07.08.2021 01:20 16,6 C 15,6 C 15,6 C 94 % 1005,4 hPa 0,0 l/m 0 min 0 min 0 W/m 0,0 km/h (0 Bft) 100,00 %
07.08.2021 01:22 16,6 C 15,6 C 15,6 C 94 % 1005,5 hPa 0,0 l/m 0 min 0 min 0 W/m 3,2 km/h (1 Bft) 97,87 %
07.08.2021 01:24 16,6 C 15,6 C 15,6 C 94 % 1005,5 hPa 0,0 l/m 0 min 0 min 0 W/m 0,0 km/h (0 Bft) 97,87 %
07.08.2021 01:26 16,6 C 15,6 C 15,6 C 94 % 1005,5 hPa 0,0 l/m 0 min 0 min 0 W/m 0,0 km/h (0 Bft) 100,00 %
07.08.2021 01:28 16,6 C 15,6 C 15,6 C 94 % 1005,5 hPa 0,0 l/m 0 min 0 min 0 W/m 0,0 km/h (0 Bft) 100,00 %
07.08.2021 01:30 16,6 C 15,6 C 15,6 C 95 % 1005,5 hPa 0,0 l/m 0 min 0 min 0 W/m 3,2 km/h (1 Bft) 97,83 %
07.08.2021 01:32 16,6 C 15,6 C 15,6 C 95 % 1005,5 hPa 0,0 l/m 0 min 0 min 0 W/m 3,2 km/h (1 Bft) 100,00 %
07.08.2021 01:34 16,6 C 15,6 C 15,6 C 95 % 1005,5 hPa 0,0 l/m 0 min 0 min 0 W/m 3,2 km/h (1 Bft) 100,00 %
07.08.2021 01:36 16,5 C 15,6 C 15,6 C 95 % 1005,5 hPa 0,0 l/m 0 min 0 min 0 W/m 3,2 km/h (1 Bft) 100,00 %
07.08.2021 01:38 16,5 C 15,6 C 15,6 C 95 % 1005,5 hPa 0,0 l/m 0 min 0 min 0 W/m 3,2 km/h (1 Bft) 100,00 %
07.08.2021 01:40 16,5 C 15,6 C 15,6 C 95 % 1005,5 hPa 0,0 l/m 0 min 0 min 0 W/m 0,0 km/h (0 Bft) 100,00 %
07.08.2021 01:42 16,5 C 15,6 C 15,6 C 95 % 1005,5 hPa 0,0 l/m 0 min 0 min 0 W/m 3,2 km/h (1 Bft) 100,00 %
07.08.2021 01:44 16,5 C 15,6 C 15,6 C 95 % 1005,5 hPa 0,0 l/m 0 min 0 min 0 W/m 3,2 km/h (1 Bft) 100,00 %
07.08.2021 01:46 16,5 C 15,6 C 15,6 C 95 % 1005,5 hPa 0,0 l/m 0 min 0 min 0 W/m 0,0 km/h (0 Bft) 100,00 %
07.08.2021 01:48 16,5 C 15,6 C 15,6 C 95 % 1005,5 hPa 0,0 l/m 0 min 0 min 0 W/m 3,2 km/h (1 Bft) 100,00 %
07.08.2021 01:50 16,5 C 15,6 C 15,6 C 95 % 1005,5 hPa 0,0 l/m 0 min 0 min 0 W/m 6,4 km/h (2 Bft) 97,87 %
07.08.2021 01:52 16,4 C 15,6 C 15,6 C 95 % 1005,4 hPa 0,0 l/m 0 min 2 min 0 W/m 6,4 km/h (2 Bft) 100,00 %
07.08.2021 01:54 16,4 C 15,6 C 15,6 C 94 % 1005,4 hPa 0,0 l/m 0 min 2 min 0 W/m 6,4 km/h (2 Bft) 100,00 %
07.08.2021 01:56 16,4 C 15,6 C 15,6 C 94 % 1005,4 hPa 0,0 l/m 0 min 0 min 0 W/m 6,4 km/h (2 Bft) 100,00 %
07.08.2021 01:58 16,4 C 15,6 C 15,6 C 94 % 1005,4 hPa 0,0 l/m 0 min 0 min 0 W/m 3,2 km/h (1 Bft) 97,87 %
07.08.2021 02:00 16,4 C 15,6 C 15,6 C 95 % 1005,4 hPa 0,0 l/m 0 min 0 min 0 W/m 3,2 km/h (1 Bft) 100,00 %
07.08.2021 02:02 16,4 C 15,6 C 15,6 C 95 % 1005,3 hPa 0,0 l/m 0 min 0 min 0 W/m 3,2 km/h (1 Bft) 100,00 %
07.08.2021 02:04 16,4 C 15,6 C 15,6 C 95 % 1005,2 hPa 0,0 l/m 0 min 2 min 0 W/m 3,2 km/h (1 Bft) 100,00 %
07.08.2021 02:06 16,4 C 15,6 C 15,6 C 95 % 1005,2 hPa 0,0 l/m 0 min 0 min 0 W/m 0,0 km/h (0 Bft) 97,83 %
07.08.2021 02:08 16,4 C 15,6 C 15,6 C 95 % 1005,2 hPa 0,0 l/m 0 min 2 min 0 W/m 0,0 km/h (0 Bft) 100,00 %
07.08.2021 02:10 16,4 C 15,6 C 15,6 C 95 % 1005,3 hPa 0,0 l/m 0 min 2 min 0 W/m 3,2 km/h (1 Bft) 97,87 %
07.08.2021 02:12 16,4 C 15,6 C 15,6 C 95 % 1005,2 hPa 0,0 l/m 0 min 2 min 0 W/m 3,2 km/h (1 Bft) 93,62 %
07.08.2021 02:14 16,4 C 15,6 C 15,6 C 95 % 1005,3 hPa 0,0 l/m 0 min 0 min 0 W/m 9,7 km/h (2 Bft) 95,74 %
07.08.2021 02:16 16,4 C 15,6 C 15,6 C 95 % 1005,4 hPa 0,0 l/m 0 min 2 min 0 W/m 12,9 km/h (3 Bft) 95,74 %
07.08.2021 02:18 16,4 C 15,6 C 15,6 C 95 % 1005,3 hPa 0,0 l/m 0 min 0 min 0 W/m 3,2 km/h (1 Bft) 95,65 %
07.08.2021 02:20 16,3 C 15,6 C 15,6 C 95 % 1005,3 hPa 0,0 l/m 0 min 0 min 0 W/m 9,7 km/h (2 Bft) 93,62 %
07.08.2021 02:22 16,3 C 15,6 C 15,6 C 95 % 1005,4 hPa 0,0 l/m 0 min 0 min 0 W/m 9,7 km/h (2 Bft) 95,74 %
07.08.2021 02:24 16,3 C 15,6 C 15,6 C 95 % 1005,2 hPa 0,0 l/m 0 min 2 min 0 W/m 6,4 km/h (2 Bft) 95,74 %
07.08.2021 02:26 16,3 C 15,6 C 15,6 C 95 % 1005,2 hPa 0,2 l/m 0 min 2 min 0 W/m 3,2 km/h (1 Bft) 95,74 %
07.08.2021 02:28 16,3 C 15,6 C 15,6 C 95 % 1005,2 hPa 0,0 l/m 0 min 2 min 0 W/m 6,4 km/h (2 Bft) 95,74 %
07.08.2021 02:30 16,3 C 15,6 C 15,6 C 95 % 1005,2 hPa 0,0 l/m 0 min 2 min 0 W/m 9,7 km/h (2 Bft) 95,74 %
07.08.2021 02:32 16,3 C 15,0 C 15,6 C 95 % 1005,2 hPa 0,0 l/m 0 min 2 min 0 W/m 9,7 km/h (2 Bft) 93,48 %
07.08.2021 02:34 16,3 C 15,0 C 15,6 C 95 % 1005,2 hPa 0,0 l/m 0 min 2 min 0 W/m 9,7 km/h (2 Bft) 95,74 %
07.08.2021 02:36 16,3 C 15,0 C 15,6 C 95 % 1005,1 hPa 0,0 l/m 0 min 2 min 0 W/m 3,2 km/h (1 Bft) 95,74 %
07.08.2021 02:38 16,3 C 15,0 C 15,6 C 95 % 1005,0 hPa 0,0 l/m 0 min 2 min 0 W/m 3,2 km/h (1 Bft) 93,62 %
07.08.2021 02:40 16,3 C 15,0 C 15,6 C 95 % 1005,1 hPa 0,0 l/m 0 min 2 min 0 W/m 9,7 km/h (2 Bft) 95,74 %
07.08.2021 02:42 16,2 C 15,0 C 15,6 C 95 % 1005,1 hPa 0,0 l/m 0 min 2 min 0 W/m 12,9 km/h (3 Bft) 95,65 %
07.08.2021 02:44 16,2 C 15,0 C 15,6 C 95 % 1005,1 hPa 0,2 l/m 0 min 2 min 0 W/m 6,4 km/h (2 Bft) 97,87 %
07.08.2021 02:46 16,2 C 15,0 C 15,6 C 95 % 1004,9 hPa 0,0 l/m 0 min 0 min 0 W/m 6,4 km/h (2 Bft) 95,74 %
07.08.2021 02:48 16,2 C 15,0 C 15,6 C 95 % 1005,0 hPa 0,0 l/m 0 min 0 min 0 W/m 6,4 km/h (2 Bft) 95,74 %
07.08.2021 02:50 16,1 C 15,0 C 15,6 C 95 % 1005,0 hPa 0,0 l/m 0 min 2 min 0 W/m 6,4 km/h (2 Bft) 95,74 %
07.08.2021 02:52 16,1 C 15,0 C 15,6 C 95 % 1005,0 hPa 0,0 l/m 0 min 0 min 0 W/m 6,4 km/h (2 Bft) 95,74 %
07.08.2021 02:54 16,1 C 15,0 C 15,6 C 95 % 1004,8 hPa 0,0 l/m 0 min 2 min 0 W/m 3,2 km/h (1 Bft) 95,65 %
07.08.2021 02:56 16,1 C 15,0 C 15,6 C 95 % 1004,9 hPa 0,0 l/m 0 min 2 min 0 W/m 3,2 km/h (1 Bft) 95,74 %
07.08.2021 02:58 16,1 C 15,0 C 15,6 C 95 % 1004,9 hPa 0,0 l/m 0 min 2 min 0 W/m 3,2 km/h (1 Bft) 100,00 %
07.08.2021 03:00 16,1 C 15,0 C 15,6 C 95 % 1004,8 hPa 0,0 l/m 0 min 2 min 0 W/m 3,2 km/h (1 Bft) 100,00 %
07.08.2021 03:02 16,0 C 15,0 C 15,6 C 95 % 1004,8 hPa 0,0 l/m 0 min 2 min 0 W/m 9,7 km/h (2 Bft) 100,00 %
07.08.2021 03:04 16,0 C 15,0 C 15,6 C 95 % 1004,9 hPa 0,0 l/m 0 min 0 min 0 W/m 6,4 km/h (2 Bft) 100,00 %
07.08.2021 03:06 16,0 C 15,0 C 15,6 C 95 % 1004,9 hPa 0,0 l/m 0 min 0 min 0 W/m 3,2 km/h (1 Bft) 100,00 %
07.08.2021 03:08 16,0 C 15,0 C 15,6 C 95 % 1004,9 hPa 0,0 l/m 0 min 0 min 0 W/m 3,2 km/h (1 Bft) 97,87 %
07.08.2021 03:10 16,0 C 15,0 C 15,6 C 95 % 1004,9 hPa 0,0 l/m 0 min 0 min 0 W/m 0,0 km/h (0 Bft) 100,00 %
07.08.2021 03:12 16,0 C 15,0 C 15,6 C 95 % 1004,8 hPa 0,0 l/m 0 min 0 min 0 W/m 6,4 km/h (2 Bft) 97,87 %
07.08.2021 03:14 16,0 C 15,0 C 15,6 C 95 % 1004,9 hPa 0,0 l/m 0 min 0 min 0 W/m 3,2 km/h (1 Bft) 100,00 %
07.08.2021 03:16 16,0 C 15,0 C 15,6 C 95 % 1004,9 hPa 0,0 l/m 0 min 0 min 0 W/m 3,2 km/h (1 Bft) 100,00 %
07.08.2021 03:18 16,0 C 15,0 C 15,6 C 95 % 1004,9 hPa 0,0 l/m 0 min 0 min 0 W/m 3,2 km/h (1 Bft) 100,00 %
07.08.2021 03:20 16,0 C 15,0 C 15,6 C 95 % 1004,9 hPa 0,0 l/m 0 min 0 min 0 W/m 3,2 km/h (1 Bft) 100,00 %
07.08.2021 03:22 16,0 C 15,0 C 15,6 C 95 % 1005,0 hPa 0,0 l/m 0 min 0 min 0 W/m 3,2 km/h (1 Bft) 97,87 %
07.08.2021 03:24 16,0 C 15,0 C 15,6 C 95 % 1005,0 hPa 0,0 l/m 0 min 0 min 0 W/m 0,0 km/h (0 Bft) 97,87 %
07.08.2021 03:26 16,0 C 15,0 C 15,6 C 95 % 1005,1 hPa 0,0 l/m 0 min 0 min 0 W/m 0,0 km/h (0 Bft) 97,87 %
07.08.2021 03:28 15,9 C 15,0 C 15,0 C 95 % 1005,1 hPa 0,0 l/m 0 min 0 min 0 W/m 0,0 km/h (0 Bft) 97,87 %
07.08.2021 03:30 15,9 C 15,0 C 15,0 C 95 % 1005,0 hPa 0,0 l/m 0 min 0 min 0 W/m 0,0 km/h (0 Bft) 97,83 %
07.08.2021 03:32 15,9 C 14,4 C 15,0 C 95 % 1005,1 hPa 0,0 l/m 0 min 0 min 0 W/m 3,2 km/h (1 Bft) 97,87 %
07.08.2021 03:34 15,9 C 14,4 C 15,0 C 95 % 1005,1 hPa 0,0 l/m 0 min 0 min 0 W/m 3,2 km/h (1 Bft) 97,87 %
07.08.2021 03:36 15,9 C 14,4 C 15,0 C 95 % 1005,0 hPa 0,0 l/m 0 min 0 min 0 W/m 3,2 km/h (1 Bft) 97,87 %
07.08.2021 03:38 15,8 C 14,4 C 15,0 C 95 % 1005,0 hPa 0,0 l/m 0 min 0 min 0 W/m 3,2 km/h (1 Bft) 97,87 %
07.08.2021 03:40 15,8 C 14,4 C 15,0 C 95 % 1005,0 hPa 0,0 l/m 0 min 0 min 0 W/m 3,2 km/h (1 Bft) 97,87 %
07.08.2021 03:42 15,8 C 14,4 C 15,0 C 95 % 1005,0 hPa 0,0 l/m 0 min 0 min 0 W/m 3,2 km/h (1 Bft) 97,83 %
07.08.2021 03:44 15,8 C 14,4 C 15,0 C 95 % 1004,9 hPa 0,0 l/m 0 min 0 min 0 W/m 3,2 km/h (1 Bft) 72,34 %
07.08.2021 03:46 15,7 C 14,4 C 15,0 C 95 % 1004,9 hPa 0,0 l/m 0 min 0 min 0 W/m 3,2 km/h (1 Bft) 73,68 %
07.08.2021 03:48 15,7 C 14,4 C 15,0 C 95 % 1004,9 hPa 0,0 l/m 0 min 0 min 0 W/m 3,2 km/h (1 Bft) 97,87 %
07.08.2021 03:50 15,6 C 14,4 C 15,0 C 95 % 1004,8 hPa 0,0 l/m 0 min 0 min 0 W/m 3,2 km/h (1 Bft) 97,83 %
07.08.2021 03:52 15,6 C 14,4 C 15,0 C 95 % 1004,8 hPa 0,0 l/m 0 min 0 min 0 W/m 0,0 km/h (0 Bft) 95,74 %
07.08.2021 03:54 15,6 C 14,4 C 15,0 C 95 % 1004,7 hPa 0,0 l/m 0 min 0 min 0 W/m 3,2 km/h (1 Bft) 97,87 %
07.08.2021 03:56 15,5 C 14,4 C 15,0 C 95 % 1004,7 hPa 0,0 l/m 0 min 0 min 0 W/m 3,2 km/h (1 Bft) 97,87 %
07.08.2021 03:58 15,5 C 14,4 C 15,0 C 95 % 1004,7 hPa 0,0 l/m 0 min 0 min 0 W/m 3,2 km/h (1 Bft) 97,87 %
07.08.2021 04:00 15,5 C 14,4 C 15,0 C 95 % 1004,7 hPa 0,0 l/m 0 min 0 min 0 W/m 0,0 km/h (0 Bft) 97,87 %
07.08.2021 04:02 15,4 C 14,4 C 15,0 C 95 % 1004,7 hPa 0,0 l/m 0 min 0 min 0 W/m 0,0 km/h (0 Bft) 100,00 %
07.08.2021 04:04 15,4 C 13,9 C 15,0 C 95 % 1004,7 hPa 0,2 l/m 0 min 0 min 0 W/m 0,0 km/h (0 Bft) 100,00 %
07.08.2021 04:06 15,4 C 13,9 C 15,0 C 95 % 1004,8 hPa 0,0 l/m 0 min 0 min 0 W/m 3,2 km/h (1 Bft) 100,00 %
07.08.2021 04:08 15,4 C 13,9 C 15,0 C 95 % 1004,8 hPa 0,0 l/m 0 min 0 min 0 W/m 3,2 km/h (1 Bft) 100,00 %
07.08.2021 04:10 15,3 C 13,9 C 15,0 C 95 % 1004,8 hPa 0,0 l/m 0 min 0 min 0 W/m 3,2 km/h (1 Bft) 100,00 %
07.08.2021 04:12 15,3 C 14,4 C 15,0 C 95 % 1004,8 hPa 0,0 l/m 0 min 0 min 0 W/m 3,2 km/h (1 Bft) 97,87 %
07.08.2021 04:14 15,3 C 13,9 C 15,0 C 95 % 1004,8 hPa 0,0 l/m 0 min 0 min 0 W/m 3,2 km/h (1 Bft) 95,74 %
07.08.2021 04:16 15,3 C 13,9 C 15,0 C 95 % 1004,8 hPa 0,0 l/m 0 min 0 min 0 W/m 6,4 km/h (2 Bft) 97,87 %
07.08.2021 04:18 15,2 C 13,9 C 15,0 C 95 % 1004,8 hPa 0,0 l/m 0 min 0 min 0 W/m 6,4 km/h (2 Bft) 97,87 %
07.08.2021 04:20 15,2 C 13,9 C 15,0 C 95 % 1004,8 hPa 0,0 l/m 0 min 0 min 0 W/m 3,2 km/h (1 Bft) 97,83 %
07.08.2021 04:22 15,1 C 13,9 C 15,0 C 96 % 1004,7 hPa 0,0 l/m 0 min 0 min 0 W/m 6,4 km/h (2 Bft) 97,87 %
07.08.2021 04:24 15,1 C 13,9 C 15,0 C 96 % 1004,7 hPa 0,0 l/m 0 min 0 min 0 W/m 6,4 km/h (2 Bft) 97,87 %
07.08.2021 04:26 15,1 C 13,9 C 15,0 C 96 % 1004,7 hPa 0,0 l/m 0 min 0 min 0 W/m 3,2 km/h (1 Bft) 97,87 %
07.08.2021 04:28 15,1 C 13,9 C 15,0 C 96 % 1004,7 hPa 0,0 l/m 0 min 0 min 0 W/m 3,2 km/h (1 Bft) 97,87 %
07.08.2021 04:30 15,1 C 13,9 C 15,0 C 96 % 1004,8 hPa 0,0 l/m 0 min 0 min 0 W/m 3,2 km/h (1 Bft) 97,87 %
07.08.2021 04:32 15,1 C 13,9 C 15,0 C 96 % 1004,7 hPa 0,0 l/m 0 min 0 min 0 W/m 6,4 km/h (2 Bft) 97,83 %
07.08.2021 04:34 15,0 C 13,9 C 15,0 C 96 % 1004,8 hPa 0,0 l/m 0 min 0 min 0 W/m 3,2 km/h (1 Bft) 95,74 %
07.08.2021 04:36 15,0 C 13,9 C 14,5 C 95 % 1004,8 hPa 0,0 l/m 0 min 0 min 0 W/m 6,4 km/h (2 Bft) 98,21 %
07.08.2021 04:38 15,0 C 13,9 C 15,0 C 95 % 1004,8 hPa 0,0 l/m 0 min 0 min 0 W/m 3,2 km/h (1 Bft) 97,83 %
07.08.2021 04:40 15,0 C 13,9 C 14,5 C 95 % 1004,8 hPa 0,0 l/m 0 min 0 min 0 W/m 6,4 km/h (2 Bft) 97,87 %
07.08.2021 04:42 15,0 C 13,9 C 14,5 C 95 % 1004,8 hPa 0,0 l/m 0 min 0 min 0 W/m 6,4 km/h (2 Bft) 95,74 %
07.08.2021 04:44 14,9 C 13,9 C 14,5 C 95 % 1004,8 hPa 0,0 l/m 0 min 0 min 0 W/m 3,2 km/h (1 Bft) 95,74 %
07.08.2021 04:46 14,9 C 13,9 C 14,5 C 95 % 1004,8 hPa 0,0 l/m 0 min 0 min 0 W/m 6,4 km/h (2 Bft) 97,87 %
07.08.2021 04:48 14,9 C 13,9 C 14,5 C 95 % 1004,7 hPa 0,0 l/m 0 min 0 min 0 W/m 3,2 km/h (1 Bft) 97,83 %
07.08.2021 04:50 14,9 C 13,9 C 14,5 C 96 % 1004,7 hPa 0,0 l/m 0 min 0 min 0 W/m 6,4 km/h (2 Bft) 97,87 %
07.08.2021 04:52 14,9 C 13,9 C 14,5 C 96 % 1004,7 hPa 0,0 l/m 0 min 0 min 0 W/m 6,4 km/h (2 Bft) 95,74 %
07.08.2021 04:54 14,9 C 13,9 C 14,5 C 96 % 1004,6 hPa 0,0 l/m 0 min 0 min 0 W/m 3,2 km/h (1 Bft) 93,62 %
07.08.2021 04:56 14,9 C 13,9 C 14,5 C 96 % 1004,7 hPa 0,0 l/m 0 min 0 min 0 W/m 3,2 km/h (1 Bft) 95,74 %
07.08.2021 04:58 14,8 C 13,9 C 15,0 C 96 % 1004,6 hPa 0,0 l/m 0 min 0 min 0 W/m 3,2 km/h (1 Bft) 97,87 %
07.08.2021 05:00 14,8 C 13,9 C 15,0 C 96 % 1004,7 hPa 0,0 l/m 0 min 0 min 0 W/m 3,2 km/h (1 Bft) 95,65 %
07.08.2021 05:02 14,8 C 13,9 C 14,5 C 96 % 1004,6 hPa 0,0 l/m 0 min 0 min 0 W/m 3,2 km/h (1 Bft) 95,74 %
07.08.2021 05:04 14,8 C 13,9 C 15,0 C 96 % 1004,5 hPa 0,0 l/m 0 min 0 min 0 W/m 3,2 km/h (1 Bft) 95,74 %
07.08.2021 05:06 14,8 C 13,9 C 15,0 C 96 % 1004,5 hPa 0,0 l/m 0 min 0 min 0 W/m 3,2 km/h (1 Bft) 95,74 %
07.08.2021 05:08 14,8 C 13,9 C 14,5 C 96 % 1004,5 hPa 0,0 l/m 0 min 0 min 0 W/m 6,4 km/h (2 Bft) 95,74 %
07.08.2021 05:10 14,8 C 13,9 C 14,5 C 96 % 1004,5 hPa 0,0 l/m 0 min 0 min 0 W/m 6,4 km/h (2 Bft) 95,74 %
07.08.2021 05:12 14,8 C 13,9 C 14,5 C 96 % 1004,5 hPa 0,0 l/m 0 min 0 min 0 W/m 6,4 km/h (2 Bft) 93,48 %
07.08.2021 05:14 14,8 C 13,9 C 14,5 C 96 % 1004,4 hPa 0,0 l/m 0 min 0 min 0 W/m 3,2 km/h (1 Bft) 89,36 %
07.08.2021 05:16 14,8 C 13,9 C 14,5 C 96 % 1004,4 hPa 0,0 l/m 0 min 0 min 0 W/m 3,2 km/h (1 Bft) 91,49 %
07.08.2021 05:18 14,7 C 13,9 C 14,5 C 96 % 1004,4 hPa 0,0 l/m 0 min 0 min 0 W/m 3,2 km/h (1 Bft) 93,62 %
07.08.2021 05:20 14,7 C 13,9 C 14,5 C 96 % 1004,4 hPa 0,0 l/m 0 min 0 min 0 W/m 6,4 km/h (2 Bft) 91,49 %
07.08.2021 05:22 14,7 C 13,9 C 14,5 C 96 % 1004,4 hPa 0,0 l/m 0 min 0 min 0 W/m 3,2 km/h (1 Bft) 91,49 %
07.08.2021 05:24 14,6 C 13,9 C 14,5 C 96 % 1004,4 hPa 0,0 l/m 0 min 0 min 0 W/m 6,4 km/h (2 Bft) 93,48 %
07.08.2021 05:26 14,6 C 13,9 C 14,5 C 96 % 1004,4 hPa 0,0 l/m 0 min 0 min 0 W/m 3,2 km/h (1 Bft) 95,74 %
07.08.2021 05:28 14,6 C 13,9 C 14,5 C 96 % 1004,4 hPa 0,0 l/m 0 min 0 min 0 W/m 3,2 km/h (1 Bft) 93,62 %
07.08.2021 05:30 14,6 C 13,9 C 14,5 C 96 % 1004,4 hPa 0,0 l/m 0 min 0 min 0 W/m 3,2 km/h (1 Bft) 93,62 %
07.08.2021 05:32 14,6 C 13,9 C 14,5 C 96 % 1004,4 hPa 0,0 l/m 0 min 0 min 0 W/m 3,2 km/h (1 Bft) 91,49 %
07.08.2021 05:34 14,6 C 13,9 C 14,5 C 96 % 1004,5 hPa 0,0 l/m 0 min 0 min 0 W/m 3,2 km/h (1 Bft) 93,62 %
07.08.2021 05:36 14,6 C 13,9 C 14,5 C 96 % 1004,4 hPa 0,0 l/m 0 min 0 min 0 W/m 6,4 km/h (2 Bft) 95,65 %
07.08.2021 05:38 14,5 C 13,9 C 14,5 C 96 % 1004,5 hPa 0,0 l/m 0 min 0 min 0 W/m 3,2 km/h (1 Bft) 95,74 %
07.08.2021 05:40 14,5 C 13,9 C 14,5 C 96 % 1004,5 hPa 0,0 l/m 0 min 0 min 0 W/m 3,2 km/h (1 Bft) 93,62 %
07.08.2021 05:42 14,5 C 13,9 C 14,5 C 96 % 1004,4 hPa 0,0 l/m 0 min 0 min 0 W/m 0,0 km/h (0 Bft) 95,74 %
07.08.2021 05:44 14,5 C 13,9 C 14,5 C 96 % 1004,4 hPa 0,0 l/m 0 min 0 min 0 W/m 3,2 km/h (1 Bft) 91,49 %
07.08.2021 05:46 14,5 C 13,9 C 14,5 C 96 % 1004,4 hPa 0,0 l/m 0 min 0 min 0 W/m 3,2 km/h (1 Bft) 95,74 %
07.08.2021 05:48 14,5 C 13,9 C 14,5 C 96 % 1004,4 hPa 0,0 l/m 0 min 0 min 0 W/m 6,4 km/h (2 Bft) 95,65 %
07.08.2021 05:50 14,5 C 13,9 C 14,5 C 96 % 1004,3 hPa 0,0 l/m 0 min 0 min 0 W/m 6,4 km/h (2 Bft) 93,62 %
07.08.2021 05:52 14,5 C 13,9 C 14,5 C 96 % 1004,3 hPa 0,0 l/m 0 min 0 min 0 W/m 3,2 km/h (1 Bft) 97,87 %
07.08.2021 05:54 14,4 C 13,9 C 14,5 C 96 % 1004,3 hPa 0,0 l/m 0 min 0 min 0 W/m 3,2 km/h (1 Bft) 95,74 %
07.08.2021 05:56 14,5 C 13,9 C 14,5 C 96 % 1004,3 hPa 0,0 l/m 0 min 0 min 0 W/m 0,0 km/h (0 Bft) 93,62 %
07.08.2021 05:58 14,4 C 13,9 C 14,5 C 96 % 1004,3 hPa 0,0 l/m 0 min 0 min 0 W/m 0,0 km/h (0 Bft) 95,74 %
07.08.2021 06:00 14,4 C 13,9 C 14,5 C 96 % 1004,3 hPa 0,0 l/m 0 min 0 min 0 W/m 3,2 km/h (1 Bft) 93,48 %
07.08.2021 06:02 14,4 C 13,9 C 14,5 C 96 % 1004,2 hPa 0,0 l/m 0 min 0 min 0 W/m 3,2 km/h (1 Bft) 95,74 %
07.08.2021 06:04 14,4 C 13,9 C 14,5 C 96 % 1004,3 hPa 0,0 l/m 0 min 0 min 0 W/m 3,2 km/h (1 Bft) 97,87 %
07.08.2021 06:08 14,4 C 13,9 C 14,5 C 96 % 1004,3 hPa 0,0 l/m 0 min 0 min 0 W/m 3,2 km/h (1 Bft) 97,92 %
07.08.2021 06:10 14,4 C 13,9 C 14,5 C 96 % 1004,2 hPa 0,0 l/m 0 min 0 min 0 W/m 3,2 km/h (1 Bft) 97,87 %
07.08.2021 06:12 14,4 C 13,9 C 14,5 C 96 % 1004,2 hPa 0,0 l/m 0 min 0 min 0 W/m 3,2 km/h (1 Bft) 97,83 %
07.08.2021 06:14 14,4 C 13,9 C 14,5 C 96 % 1004,2 hPa 0,0 l/m 0 min 0 min 1 W/m 3,2 km/h (1 Bft) 97,87 %
07.08.2021 06:16 14,4 C 13,9 C 14,5 C 96 % 1004,2 hPa 0,0 l/m 0 min 0 min 5 W/m 3,2 km/h (1 Bft) 97,87 %
07.08.2021 06:18 14,5 C 13,9 C 14,5 C 96 % 1004,2 hPa 0,0 l/m 0 min 0 min 5 W/m 6,4 km/h (2 Bft) 100,00 %
07.08.2021 06:20 14,5 C 13,9 C 14,5 C 96 % 1004,2 hPa 0,0 l/m 0 min 0 min 5 W/m 3,2 km/h (1 Bft) 97,87 %
07.08.2021 06:22 14,5 C 13,9 C 14,5 C 96 % 1004,1 hPa 0,0 l/m 0 min 0 min 6 W/m 3,2 km/h (1 Bft) 100,00 %
07.08.2021 06:24 14,5 C 13,9 C 14,5 C 96 % 1004,1 hPa 0,0 l/m 0 min 0 min 7 W/m 6,4 km/h (2 Bft) 100,00 %
07.08.2021 06:26 14,5 C 13,9 C 14,5 C 96 % 1004,1 hPa 0,0 l/m 0 min 0 min 8 W/m 3,2 km/h (1 Bft) 100,00 %
07.08.2021 06:28 14,5 C 13,9 C 14,5 C 96 % 1004,2 hPa 0,0 l/m 0 min 0 min 9 W/m 6,4 km/h (2 Bft) 100,00 %
07.08.2021 06:30 14,5 C 13,9 C 15,0 C 96 % 1004,1 hPa 0,0 l/m 0 min 0 min 9 W/m 6,4 km/h (2 Bft) 100,00 %
07.08.2021 06:32 14,5 C 13,9 C 15,0 C 96 % 1004,2 hPa 0,0 l/m 0 min 0 min 9 W/m 3,2 km/h (1 Bft) 100,00 %
07.08.2021 06:34 14,5 C 13,9 C 14,5 C 96 % 1004,1 hPa 0,0 l/m 0 min 0 min 10 W/m 6,4 km/h (2 Bft) 100,00 %
07.08.2021 06:36 14,6 C 13,9 C 15,0 C 96 % 1004,1 hPa 0,0 l/m 0 min 0 min 11 W/m 3,2 km/h (1 Bft) 100,00 %
07.08.2021 06:38 14,6 C 13,9 C 15,0 C 96 % 1004,1 hPa 0,0 l/m 0 min 0 min 12 W/m 6,4 km/h (2 Bft) 100,00 %
07.08.2021 06:40 14,6 C 13,9 C 15,0 C 96 % 1004,1 hPa 0,0 l/m 0 min 0 min 12 W/m 3,2 km/h (1 Bft) 100,00 %
07.08.2021 06:42 14,6 C 13,9 C 15,0 C 96 % 1004,1 hPa 0,0 l/m 0 min 0 min 13 W/m 3,2 km/h (1 Bft) 100,00 %
07.08.2021 06:44 14,6 C 13,9 C 15,0 C 96 % 1004,1 hPa 0,0 l/m 0 min 0 min 14 W/m 6,4 km/h (2 Bft) 100,00 %
07.08.2021 06:46 14,6 C 14,4 C 15,0 C 96 % 1004,1 hPa 0,0 l/m 0 min 0 min 16 W/m 12,9 km/h (3 Bft) 100,00 %
07.08.2021 06:48 14,6 C 14,4 C 15,0 C 96 % 1004,1 hPa 0,0 l/m 0 min 0 min 16 W/m 6,4 km/h (2 Bft) 100,00 %
07.08.2021 06:50 14,6 C 14,4 C 15,0 C 96 % 1004,1 hPa 0,0 l/m 0 min 0 min 17 W/m 6,4 km/h (2 Bft) 100,00 %
07.08.2021 06:52 14,7 C 14,4 C 15,0 C 96 % 1004,1 hPa 0,0 l/m 0 min 0 min 18 W/m 6,4 km/h (2 Bft) 100,00 %
07.08.2021 06:54 14,6 C 14,4 C 15,0 C 96 % 1004,1 hPa 0,0 l/m 0 min 0 min 19 W/m 6,4 km/h (2 Bft) 98,00 %
07.08.2021 06:56 14,7 C 14,4 C 15,0 C 96 % 1004,1 hPa 0,0 l/m 0 min 0 min 19 W/m 3,2 km/h (1 Bft) 100,00 %
07.08.2021 06:58 14,7 C 14,4 C 15,0 C 96 % 1004,2 hPa 0,0 l/m 0 min 0 min 19 W/m 6,4 km/h (2 Bft) 100,00 %
07.08.2021 07:00 14,7 C 14,4 C 15,0 C 96 % 1004,2 hPa 0,0 l/m 0 min 0 min 21 W/m 6,4 km/h (2 Bft) 100,00 %
07.08.2021 07:02 14,7 C 14,4 C 15,0 C 96 % 1004,2 hPa 0,0 l/m 0 min 0 min 23 W/m 6,4 km/h (2 Bft) 100,00 %
07.08.2021 07:04 14,7 C 14,4 C 15,0 C 96 % 1004,2 hPa 0,0 l/m 0 min 0 min 25 W/m 6,4 km/h (2 Bft) 100,00 %
07.08.2021 07:06 14,7 C 14,4 C 15,0 C 96 % 1004,3 hPa 0,0 l/m 0 min 0 min 25 W/m 6,4 km/h (2 Bft) 100,00 %
07.08.2021 07:08 14,7 C 14,4 C 15,0 C 96 % 1004,3 hPa 0,0 l/m 0 min 0 min 26 W/m 3,2 km/h (1 Bft) 100,00 %
07.08.2021 07:10 14,7 C 14,4 C 15,0 C 96 % 1004,2 hPa 0,0 l/m 0 min 0 min 27 W/m 3,2 km/h (1 Bft) 97,14 %
07.08.2021 07:12 14,8 C 14,4 C 15,0 C 96 % 1004,2 hPa 0,0 l/m 0 min 0 min 28 W/m 6,4 km/h (2 Bft) 97,87 %
07.08.2021 07:14 14,8 C 14,4 C 15,0 C 96 % 1004,2 hPa 0,0 l/m 0 min 0 min 31 W/m 3,2 km/h (1 Bft) 100,00 %
07.08.2021 07:16 14,8 C 14,4 C 15,0 C 96 % 1004,2 hPa 0,0 l/m 0 min 0 min 32 W/m 6,4 km/h (2 Bft) 100,00 %
07.08.2021 07:18 14,8 C 14,4 C 15,0 C 96 % 1004,2 hPa 0,0 l/m 0 min 0 min 34 W/m 12,9 km/h (3 Bft) 100,00 %
07.08.2021 07:20 14,8 C 14,4 C 15,0 C 96 % 1004,2 hPa 0,0 l/m 0 min 0 min 35 W/m 3,2 km/h (1 Bft) 97,14 %
07.08.2021 07:22 14,8 C 14,4 C 15,0 C 96 % 1004,2 hPa 0,0 l/m 0 min 0 min 34 W/m 12,9 km/h (3 Bft) 98,31 %
07.08.2021 07:24 14,8 C 14,4 C 15,0 C 96 % 1004,2 hPa 0,0 l/m 0 min 0 min 33 W/m 12,9 km/h (3 Bft) 97,14 %
07.08.2021 07:26 14,8 C 14,4 C 15,0 C 96 % 1004,2 hPa 0,0 l/m 0 min 0 min 35 W/m 3,2 km/h (1 Bft) 95,74 %
07.08.2021 07:28 14,8 C 14,4 C 15,0 C 96 % 1004,2 hPa 0,0 l/m 0 min 0 min 38 W/m 6,4 km/h (2 Bft) 97,83 %
07.08.2021 07:30 14,8 C 14,4 C 15,0 C 96 % 1004,2 hPa 0,0 l/m 0 min 0 min 41 W/m 12,9 km/h (3 Bft) 97,87 %
07.08.2021 07:32 14,8 C 14,4 C 15,0 C 96 % 1004,2 hPa 0,0 l/m 0 min 0 min 44 W/m 6,4 km/h (2 Bft) 97,87 %
07.08.2021 07:34 14,8 C 14,4 C 15,0 C 96 % 1004,1 hPa 0,0 l/m 0 min 0 min 43 W/m 6,4 km/h (2 Bft) 96,61 %
07.08.2021 07:36 14,8 C 14,4 C 15,0 C 96 % 1004,2 hPa 0,0 l/m 0 min 0 min 45 W/m 3,2 km/h (1 Bft) 97,87 %
07.08.2021 07:38 14,8 C 14,4 C 15,0 C 96 % 1004,1 hPa 0,0 l/m 0 min 0 min 50 W/m 12,9 km/h (3 Bft) 97,83 %
07.08.2021 07:40 14,8 C 14,4 C 15,0 C 96 % 1004,2 hPa 0,0 l/m 0 min 0 min 55 W/m 3,2 km/h (1 Bft) 94,44 %
07.08.2021 07:42 14,9 C 14,4 C 15,0 C 96 % 1004,2 hPa 0,0 l/m 0 min 0 min 57 W/m 3,2 km/h (1 Bft) 95,65 %
07.08.2021 07:44 14,9 C 14,4 C 15,0 C 96 % 1004,1 hPa 0,0 l/m 0 min 0 min 60 W/m 3,2 km/h (1 Bft) 97,87 %
07.08.2021 07:46 14,9 C 14,4 C 15,0 C 96 % 1004,1 hPa 0,0 l/m 0 min 0 min 66 W/m 3,2 km/h (1 Bft) 97,87 %
07.08.2021 07:48 14,9 C 14,4 C 15,0 C 96 % 1004,1 hPa 0,0 l/m 0 min 0 min 73 W/m 3,2 km/h (1 Bft) 97,87 %
07.08.2021 07:50 14,9 C 14,4 C 15,0 C 96 % 1004,1 hPa 0,0 l/m 0 min 0 min 82 W/m 6,4 km/h (2 Bft) 97,87 %
07.08.2021 07:52 14,9 C 14,4 C 15,0 C 96 % 1004,1 hPa 0,0 l/m 0 min 0 min 86 W/m 3,2 km/h (1 Bft) 97,83 %
07.08.2021 07:54 15,0 C 14,4 C 15,0 C 96 % 1004,1 hPa 0,0 l/m 0 min 0 min 86 W/m 6,4 km/h (2 Bft) 97,87 %
07.08.2021 07:56 15,0 C 14,4 C 15,0 C 96 % 1004,0 hPa 0,0 l/m 0 min 0 min 79 W/m 12,9 km/h (3 Bft) 97,87 %
07.08.2021 07:58 15,0 C 15,0 C 15,6 C 95 % 1004,1 hPa 0,0 l/m 0 min 0 min 71 W/m 6,4 km/h (2 Bft) 97,87 %
07.08.2021 08:00 15,0 C 15,0 C 15,0 C 95 % 1004,1 hPa 0,0 l/m 0 min 0 min 68 W/m 12,9 km/h (3 Bft) 97,87 %
07.08.2021 08:02 15,0 C 15,0 C 15,6 C 95 % 1004,1 hPa 0,0 l/m 0 min 0 min 69 W/m 6,4 km/h (2 Bft) 95,74 %
07.08.2021 08:04 15,0 C 15,0 C 15,0 C 95 % 1004,1 hPa 0,0 l/m 0 min 0 min 76 W/m 6,4 km/h (2 Bft) 97,83 %
07.08.2021 08:06 15,0 C 15,0 C 15,6 C 95 % 1004,0 hPa 0,0 l/m 0 min 0 min 86 W/m 3,2 km/h (1 Bft) 96,61 %
07.08.2021 08:08 15,0 C 15,0 C 15,6 C 96 % 1004,0 hPa 0,0 l/m 0 min 0 min 96 W/m 6,4 km/h (2 Bft) 97,87 %
07.08.2021 08:10 15,1 C 15,0 C 15,6 C 96 % 1004,0 hPa 0,0 l/m 0 min 0 min 101 W/m 6,4 km/h (2 Bft) 100,00 %
07.08.2021 08:12 15,1 C 15,0 C 15,6 C 96 % 1004,0 hPa 0,0 l/m 0 min 0 min 97 W/m 12,9 km/h (3 Bft) 97,87 %
07.08.2021 08:14 15,1 C 15,0 C 15,6 C 96 % 1004,1 hPa 0,0 l/m 0 min 0 min 93 W/m 12,9 km/h (3 Bft) 97,87 %
07.08.2021 08:16 15,1 C 15,0 C 15,6 C 96 % 1004,1 hPa 0,0 l/m 0 min 0 min 96 W/m 6,4 km/h (2 Bft) 97,83 %
07.08.2021 08:18 15,2 C 15,0 C 15,6 C 96 % 1004,0 hPa 0,0 l/m 0 min 0 min 106 W/m 6,4 km/h (2 Bft) 97,87 %
07.08.2021 08:20 15,3 C 15,6 C 15,6 C 96 % 1004,1 hPa 0,0 l/m 0 min 0 min 109 W/m 6,4 km/h (2 Bft) 97,87 %
07.08.2021 08:22 15,3 C 15,6 C 15,6 C 95 % 1004,1 hPa 0,0 l/m 0 min 0 min 108 W/m 12,9 km/h (3 Bft) 97,87 %
07.08.2021 08:24 15,3 C 15,6 C 15,6 C 95 % 1004,0 hPa 0,0 l/m 0 min 0 min 109 W/m 6,4 km/h (2 Bft) 97,87 %
07.08.2021 08:26 15,4 C 15,6 C 15,6 C 95 % 1004,0 hPa 0,0 l/m 0 min 0 min 129 W/m 3,2 km/h (1 Bft) 97,87 %
07.08.2021 08:28 15,4 C 15,6 C 15,6 C 96 % 1004,0 hPa 0,0 l/m 2 min 0 min 170 W/m 6,4 km/h (2 Bft) 95,65 %
07.08.2021 08:30 15,5 C 15,6 C 16,1 C 96 % 1004,0 hPa 0,0 l/m 0 min 0 min 153 W/m 6,4 km/h (2 Bft) 97,87 %
07.08.2021 08:32 15,5 C 16,1 C 16,1 C 95 % 1004,0 hPa 0,0 l/m 0 min 0 min 152 W/m 3,2 km/h (1 Bft) 97,87 %
07.08.2021 08:34 15,5 C 16,1 C 16,1 C 95 % 1004,0 hPa 0,0 l/m 0 min 0 min 163 W/m 6,4 km/h (2 Bft) 97,87 %
07.08.2021 08:36 15,6 C 16,1 C 16,1 C 95 % 1004,0 hPa 0,0 l/m 2 min 0 min 242 W/m 6,4 km/h (2 Bft) 97,87 %
07.08.2021 08:38 15,7 C 16,7 C 16,1 C 95 % 1004,0 hPa 0,0 l/m 2 min 0 min 255 W/m 6,4 km/h (2 Bft) 98,28 %
07.08.2021 08:40 15,8 C 16,7 C 16,1 C 95 % 1004,0 hPa 0,0 l/m 0 min 0 min 173 W/m 3,2 km/h (1 Bft) 97,14 %
07.08.2021 08:42 15,9 C 16,7 C 16,1 C 96 % 1004,0 hPa 0,0 l/m 0 min 0 min 150 W/m 3,2 km/h (1 Bft) 95,74 %
07.08.2021 08:44 15,9 C 16,7 C 16,1 C 95 % 1004,1 hPa 0,0 l/m 0 min 0 min 138 W/m 3,2 km/h (1 Bft) 97,87 %
07.08.2021 08:46 16,0 C 16,7 C 16,7 C 95 % 1004,0 hPa 0,0 l/m 0 min 0 min 151 W/m 9,7 km/h (2 Bft) 93,62 %
07.08.2021 08:48 16,0 C 16,7 C 16,1 C 95 % 1004,1 hPa 0,0 l/m 0 min 0 min 164 W/m 3,2 km/h (1 Bft) 97,87 %
07.08.2021 08:50 16,1 C 16,7 C 16,7 C 95 % 1004,0 hPa 0,0 l/m 0 min 0 min 178 W/m 12,9 km/h (3 Bft) 96,55 %
07.08.2021 08:52 16,1 C 16,7 C 16,1 C 95 % 1004,0 hPa 0,0 l/m 0 min 0 min 192 W/m 16,1 km/h (3 Bft) 97,87 %
07.08.2021 08:54 16,2 C 16,7 C 16,1 C 95 % 1004,1 hPa 0,0 l/m 0 min 0 min 185 W/m 6,4 km/h (2 Bft) 95,74 %
07.08.2021 08:56 16,3 C 16,7 C 16,7 C 95 % 1004,0 hPa 0,0 l/m 0 min 0 min 169 W/m 6,4 km/h (2 Bft) 97,87 %
07.08.2021 08:58 16,3 C 16,7 C 16,7 C 95 % 1004,0 hPa 0,0 l/m 0 min 0 min 199 W/m 6,4 km/h (2 Bft) 95,74 %
07.08.2021 09:00 16,4 C 17,2 C 16,7 C 94 % 1004,0 hPa 0,0 l/m 2 min 0 min 231 W/m 12,9 km/h (3 Bft) 100,00 %
07.08.2021 09:02 16,4 C 17,2 C 16,7 C 94 % 1004,0 hPa 0,0 l/m 0 min 0 min 190 W/m 12,9 km/h (3 Bft) 100,00 %
07.08.2021 09:04 16,5 C 17,2 C 16,7 C 94 % 1004,0 hPa 0,0 l/m 0 min 0 min 181 W/m 9,7 km/h (2 Bft) 100,00 %
07.08.2021 09:06 16,5 C 17,2 C 16,7 C 94 % 1004,0 hPa 0,0 l/m 0 min 0 min 177 W/m 12,9 km/h (3 Bft) 97,87 %
07.08.2021 09:08 16,5 C 16,7 C 16,7 C 94 % 1004,0 hPa 0,0 l/m 0 min 0 min 172 W/m 16,1 km/h (3 Bft) 97,87 %
07.08.2021 09:10 16,6 C 17,2 C 16,7 C 94 % 1004,0 hPa 0,0 l/m 0 min 0 min 163 W/m 6,4 km/h (2 Bft) 97,87 %
07.08.2021 09:12 16,6 C 17,2 C 16,7 C 94 % 1004,0 hPa 0,0 l/m 0 min 0 min 153 W/m 3,2 km/h (1 Bft) 100,00 %
07.08.2021 09:14 16,7 C 17,2 C 16,7 C 93 % 1004,0 hPa 0,0 l/m 0 min 0 min 146 W/m 12,9 km/h (3 Bft) 100,00 %
07.08.2021 09:16 16,8 C 16,7 C 16,7 C 93 % 1003,9 hPa 0,0 l/m 0 min 0 min 148 W/m 12,9 km/h (3 Bft) 95,74 %
07.08.2021 09:18 16,8 C 16,7 C 16,7 C 93 % 1004,0 hPa 0,0 l/m 0 min 0 min 148 W/m 12,9 km/h (3 Bft) 100,00 %
07.08.2021 09:20 16,8 C 16,7 C 16,7 C 93 % 1004,0 hPa 0,0 l/m 0 min 0 min 142 W/m 6,4 km/h (2 Bft) 100,00 %
07.08.2021 09:22 16,8 C 17,2 C 16,7 C 93 % 1004,0 hPa 0,0 l/m 0 min 0 min 143 W/m 12,9 km/h (3 Bft) 100,00 %
07.08.2021 09:24 16,9 C 17,2 C 16,7 C 92 % 1004,0 hPa 0,0 l/m 0 min 0 min 154 W/m 6,4 km/h (2 Bft) 100,00 %
07.08.2021 09:26 16,9 C 17,2 C 16,7 C 92 % 1004,0 hPa 0,0 l/m 0 min 0 min 156 W/m 9,7 km/h (2 Bft) 100,00 %
07.08.2021 09:28 16,9 C 17,8 C 17,3 C 92 % 1004,0 hPa 0,0 l/m 0 min 0 min 190 W/m 6,4 km/h (2 Bft) 100,00 %
07.08.2021 09:30 17,0 C 18,3 C 17,3 C 92 % 1004,0 hPa 0,0 l/m 0 min 0 min 197 W/m 6,4 km/h (2 Bft) 100,00 %
07.08.2021 09:32 17,1 C 18,3 C 17,3 C 92 % 1004,0 hPa 0,0 l/m 0 min 0 min 202 W/m 16,1 km/h (3 Bft) 97,87 %
07.08.2021 09:34 17,1 C 18,3 C 17,3 C 92 % 1004,0 hPa 0,0 l/m 2 min 0 min 266 W/m 9,7 km/h (2 Bft) 97,87 %
07.08.2021 09:36 17,2 C 18,3 C 17,3 C 91 % 1004,0 hPa 0,0 l/m 0 min 0 min 216 W/m 6,4 km/h (2 Bft) 100,00 %
07.08.2021 09:38 17,3 C 18,9 C 17,8 C 91 % 1004,0 hPa 0,0 l/m 0 min 0 min 222 W/m 6,4 km/h (2 Bft) 97,87 %
07.08.2021 09:40 17,3 C 18,3 C 17,8 C 91 % 1004,0 hPa 0,0 l/m 0 min 0 min 217 W/m 9,7 km/h (2 Bft) 100,00 %
07.08.2021 09:42 17,4 C 18,3 C 17,8 C 91 % 1004,0 hPa 0,0 l/m 0 min 0 min 217 W/m 12,9 km/h (3 Bft) 100,00 %
07.08.2021 09:44 17,4 C 18,3 C 17,8 C 91 % 1004,0 hPa 0,0 l/m 2 min 0 min 265 W/m 6,4 km/h (2 Bft) 100,00 %
07.08.2021 09:46 17,5 C 18,3 C 18,4 C 90 % 1004,0 hPa 0,0 l/m 0 min 0 min 233 W/m 12,9 km/h (3 Bft) 100,00 %
07.08.2021 09:48 17,5 C 18,9 C 18,4 C 90 % 1004,0 hPa 0,0 l/m 2 min 0 min 273 W/m 6,4 km/h (2 Bft) 100,00 %
07.08.2021 09:50 17,6 C 18,9 C 18,4 C 90 % 1003,9 hPa 0,0 l/m 2 min 0 min 355 W/m 12,9 km/h (3 Bft) 97,87 %
07.08.2021 09:52 17,7 C 18,9 C 18,9 C 90 % 1004,0 hPa 0,0 l/m 0 min 0 min 263 W/m 12,9 km/h (3 Bft) 100,00 %
07.08.2021 09:54 17,8 C 18,9 C 18,9 C 89 % 1003,9 hPa 0,0 l/m 2 min 0 min 269 W/m 9,7 km/h (2 Bft) 100,00 %
07.08.2021 09:56 17,8 C 18,9 C 18,9 C 89 % 1004,0 hPa 0,0 l/m 0 min 0 min 257 W/m 9,7 km/h (2 Bft) 95,74 %
07.08.2021 09:58 17,9 C 18,9 C 18,9 C 88 % 1003,9 hPa 0,0 l/m 0 min 0 min 262 W/m 12,9 km/h (3 Bft) 100,00 %
07.08.2021 10:00 17,9 C 18,9 C 18,9 C 88 % 1004,0 hPa 0,0 l/m 2 min 0 min 307 W/m 12,9 km/h (3 Bft) 100,00 %
07.08.2021 10:02 18,0 C 19,4 C 18,9 C 88 % 1003,9 hPa 0,0 l/m 2 min 0 min 310 W/m 6,4 km/h (2 Bft) 97,87 %
07.08.2021 10:04 18,0 C 19,4 C 18,9 C 87 % 1004,0 hPa 0,0 l/m 2 min 0 min 389 W/m 6,4 km/h (2 Bft) 100,00 %
07.08.2021 10:06 18,1 C 19,4 C 18,9 C 87 % 1004,0 hPa 0,0 l/m 2 min 0 min 302 W/m 9,7 km/h (2 Bft) 95,74 %
07.08.2021 10:08 18,2 C 19,4 C 18,9 C 87 % 1004,0 hPa 0,0 l/m 0 min 0 min 274 W/m 12,9 km/h (3 Bft) 97,87 %
07.08.2021 10:10 18,3 C 19,4 C 19,5 C 87 % 1004,0 hPa 0,0 l/m 2 min 0 min 304 W/m 12,9 km/h (3 Bft) 100,00 %
07.08.2021 10:12 18,3 C 19,4 C 19,5 C 86 % 1004,0 hPa 0,0 l/m 2 min 0 min 326 W/m 6,4 km/h (2 Bft) 100,00 %
07.08.2021 10:14 18,4 C 20,0 C 19,5 C 86 % 1003,9 hPa 0,0 l/m 2 min 0 min 364 W/m 12,9 km/h (3 Bft) 100,00 %
07.08.2021 10:16 18,5 C 20,0 C 19,5 C 86 % 1003,9 hPa 0,0 l/m 2 min 0 min 464 W/m 12,9 km/h (3 Bft) 95,74 %
07.08.2021 10:18 18,6 C 21,7 C 19,5 C 86 % 1003,8 hPa 0,0 l/m 2 min 0 min 589 W/m 12,9 km/h (3 Bft) 95,74 %
07.08.2021 10:20 18,8 C 22,2 C 20,0 C 86 % 1003,9 hPa 0,0 l/m 2 min 0 min 777 W/m 9,7 km/h (2 Bft) 97,87 %
07.08.2021 10:22 18,9 C 22,2 C 20,0 C 85 % 1003,9 hPa 0,0 l/m 2 min 0 min 701 W/m 12,9 km/h (3 Bft) 97,87 %
07.08.2021 10:24 19,0 C 22,2 C 20,0 C 85 % 1003,9 hPa 0,0 l/m 2 min 0 min 505 W/m 12,9 km/h (3 Bft) 97,83 %
07.08.2021 10:26 19,1 C 22,2 C 20,0 C 84 % 1003,9 hPa 0,0 l/m 2 min 0 min 517 W/m 16,1 km/h (3 Bft) 95,74 %
07.08.2021 10:28 19,2 C 21,7 C 20,0 C 84 % 1003,9 hPa 0,0 l/m 2 min 0 min 434 W/m 22,5 km/h (4 Bft) 97,87 %
07.08.2021 10:30 19,3 C 21,7 C 20,6 C 83 % 1003,8 hPa 0,0 l/m 2 min 0 min 526 W/m 12,9 km/h (3 Bft) 97,87 %
07.08.2021 10:32 19,4 C 21,7 C 20,6 C 83 % 1003,7 hPa 0,0 l/m 2 min 0 min 574 W/m 12,9 km/h (3 Bft) 97,87 %
07.08.2021 10:34 19,5 C 21,7 C 20,0 C 83 % 1003,7 hPa 0,0 l/m 0 min 0 min 271 W/m 6,4 km/h (2 Bft) 97,83 %
07.08.2021 10:36 19,5 C 21,1 C 20,0 C 83 % 1003,7 hPa 0,0 l/m 0 min 0 min 286 W/m 9,7 km/h (2 Bft) 97,87 %
07.08.2021 10:38 19,6 C 21,1 C 20,0 C 83 % 1003,7 hPa 0,0 l/m 0 min 0 min 297 W/m 12,9 km/h (3 Bft) 97,87 %
07.08.2021 10:40 19,6 C 20,6 C 20,0 C 82 % 1003,7 hPa 0,0 l/m 0 min 0 min 299 W/m 19,3 km/h (3 Bft) 97,87 %
07.08.2021 10:42 19,6 C 20,0 C 20,0 C 82 % 1003,7 hPa 0,0 l/m 0 min 0 min 313 W/m 19,3 km/h (3 Bft) 97,87 %
07.08.2021 10:44 19,6 C 20,0 C 20,6 C 81 % 1003,7 hPa 0,0 l/m 2 min 0 min 336 W/m 16,1 km/h (3 Bft) 97,87 %
07.08.2021 10:46 19,6 C 20,0 C 20,6 C 81 % 1003,7 hPa 0,0 l/m 2 min 0 min 358 W/m 16,1 km/h (3 Bft) 97,87 %
07.08.2021 10:48 19,6 C 20,6 C 20,6 C 82 % 1003,6 hPa 0,0 l/m 2 min 0 min 369 W/m 16,1 km/h (3 Bft) 95,65 %
07.08.2021 10:50 19,6 C 20,6 C 20,6 C 82 % 1003,6 hPa 0,0 l/m 2 min 0 min 377 W/m 16,1 km/h (3 Bft) 95,74 %
07.08.2021 10:52 19,6 C 20,0 C 20,6 C 82 % 1003,6 hPa 0,0 l/m 2 min 0 min 347 W/m 19,3 km/h (3 Bft) 100,00 %
07.08.2021 10:54 19,6 C 20,6 C 20,6 C 82 % 1003,6 hPa 0,0 l/m 2 min 0 min 355 W/m 16,1 km/h (3 Bft) 95,74 %
07.08.2021 10:56 19,6 C 20,6 C 20,6 C 82 % 1003,5 hPa 0,0 l/m 2 min 0 min 370 W/m 16,1 km/h (3 Bft) 95,74 %
07.08.2021 10:58 19,7 C 20,0 C 20,6 C 81 % 1003,5 hPa 0,0 l/m 2 min 0 min 346 W/m 19,3 km/h (3 Bft) 95,65 %
07.08.2021 11:00 19,7 C 20,0 C 20,6 C 81 % 1003,5 hPa 0,0 l/m 2 min 0 min 341 W/m 6,4 km/h (2 Bft) 93,62 %
07.08.2021 11:02 19,8 C 20,6 C 20,6 C 80 % 1003,5 hPa 0,0 l/m 2 min 0 min 347 W/m 9,7 km/h (2 Bft) 95,74 %
07.08.2021 11:04 19,8 C 20,6 C 20,6 C 80 % 1003,5 hPa 0,0 l/m 2 min 0 min 363 W/m 22,5 km/h (4 Bft) 95,74 %
07.08.2021 11:06 19,8 C 20,6 C 20,6 C 80 % 1003,5 hPa 0,0 l/m 2 min 0 min 366 W/m 12,9 km/h (3 Bft) 95,74 %
07.08.2021 11:08 19,8 C 20,6 C 20,6 C 80 % 1003,4 hPa 0,0 l/m 2 min 0 min 389 W/m 19,3 km/h (3 Bft) 95,74 %
07.08.2021 11:10 19,8 C 20,6 C 20,6 C 80 % 1003,4 hPa 0,0 l/m 2 min 0 min 407 W/m 12,9 km/h (3 Bft) 95,65 %
07.08.2021 11:12 19,8 C 20,6 C 20,6 C 79 % 1003,5 hPa 0,0 l/m 2 min 0 min 399 W/m 19,3 km/h (3 Bft) 93,62 %
07.08.2021 11:14 19,9 C 20,6 C 20,6 C 79 % 1003,4 hPa 0,0 l/m 2 min 0 min 390 W/m 16,1 km/h (3 Bft) 95,74 %
07.08.2021 11:16 19,9 C 20,6 C 20,6 C 79 % 1003,4 hPa 0,0 l/m 2 min 0 min 376 W/m 12,9 km/h (3 Bft) 93,62 %
07.08.2021 11:18 20,0 C 20,6 C 20,6 C 79 % 1003,4 hPa 0,0 l/m 2 min 0 min 370 W/m 19,3 km/h (3 Bft) 93,62 %
07.08.2021 11:20 20,0 C 20,6 C 20,6 C 79 % 1003,3 hPa 0,0 l/m 2 min 0 min 370 W/m 12,9 km/h (3 Bft) 97,87 %
07.08.2021 11:22 20,0 C 20,6 C 20,6 C 79 % 1003,4 hPa 0,0 l/m 2 min 0 min 373 W/m 16,1 km/h (3 Bft) 97,83 %
07.08.2021 11:24 20,1 C 21,1 C 20,6 C 79 % 1003,4 hPa 0,0 l/m 2 min 0 min 390 W/m 16,1 km/h (3 Bft) 97,87 %
07.08.2021 11:26 20,1 C 20,6 C 20,6 C 77 % 1003,4 hPa 0,0 l/m 2 min 0 min 399 W/m 29,0 km/h (5 Bft) 95,74 %
07.08.2021 11:28 20,1 C 20,6 C 20,6 C 76 % 1003,4 hPa 0,0 l/m 2 min 0 min 418 W/m 19,3 km/h (3 Bft) 97,87 %
07.08.2021 11:30 20,1 C 21,1 C 20,6 C 76 % 1003,4 hPa 0,0 l/m 2 min 0 min 434 W/m 19,3 km/h (3 Bft) 97,87 %
07.08.2021 11:32 20,1 C 21,1 C 21,1 C 77 % 1003,4 hPa 0,0 l/m 2 min 0 min 492 W/m 16,1 km/h (3 Bft) 97,87 %
07.08.2021 11:34 20,1 C 21,1 C 21,1 C 76 % 1003,4 hPa 0,0 l/m 2 min 0 min 532 W/m 19,3 km/h (3 Bft) 95,65 %
07.08.2021 11:36 20,2 C 21,1 C 21,1 C 76 % 1003,4 hPa 0,0 l/m 2 min 0 min 484 W/m 19,3 km/h (3 Bft) 95,74 %
07.08.2021 11:38 20,3 C 21,1 C 21,1 C 76 % 1003,4 hPa 0,0 l/m 2 min 0 min 474 W/m 12,9 km/h (3 Bft) 93,62 %
07.08.2021 11:40 20,4 C 21,7 C 21,7 C 76 % 1003,4 hPa 0,0 l/m 2 min 0 min 504 W/m 19,3 km/h (3 Bft) 97,87 %
07.08.2021 11:42 20,5 C 22,2 C 22,8 C 77 % 1003,4 hPa 0,0 l/m 2 min 0 min 697 W/m 16,1 km/h (3 Bft) 97,87 %
07.08.2021 11:44 20,6 C 22,2 C 22,8 C 75 % 1003,4 hPa 0,0 l/m 2 min 0 min 825 W/m 25,7 km/h (4 Bft) 97,87 %
07.08.2021 11:46 20,8 C 22,2 C 22,8 C 74 % 1003,3 hPa 0,0 l/m 2 min 0 min 864 W/m 22,5 km/h (4 Bft) 97,83 %
07.08.2021 11:48 20,9 C 22,2 C 22,3 C 74 % 1003,4 hPa 0,0 l/m 2 min 0 min 918 W/m 22,5 km/h (4 Bft) 95,74 %
07.08.2021 11:50 21,0 C 22,2 C 22,3 C 74 % 1003,4 hPa 0,0 l/m 2 min 0 min 404 W/m 19,3 km/h (3 Bft) 97,87 %
07.08.2021 11:52 21,0 C 21,7 C 21,7 C 74 % 1003,4 hPa 0,0 l/m 2 min 0 min 381 W/m 25,7 km/h (4 Bft) 97,87 %
07.08.2021 11:54 21,0 C 21,1 C 21,1 C 73 % 1003,4 hPa 0,0 l/m 0 min 0 min 287 W/m 35,4 km/h (5 Bft) 97,87 %
07.08.2021 11:56 20,9 C 21,7 C 21,1 C 73 % 1003,4 hPa 0,0 l/m 0 min 0 min 322 W/m 22,5 km/h (4 Bft) 97,87 %
07.08.2021 11:58 20,9 C 22,2 C 21,1 C 73 % 1003,3 hPa 0,0 l/m 0 min 0 min 322 W/m 29,0 km/h (5 Bft) 97,83 %
07.08.2021 12:00 21,0 C 22,8 C 21,7 C 72 % 1003,4 hPa 0,0 l/m 2 min 0 min 952 W/m 22,5 km/h (4 Bft) 97,87 %
07.08.2021 12:02 21,1 C 23,3 C 21,7 C 73 % 1003,3 hPa 0,0 l/m 2 min 0 min 890 W/m 16,1 km/h (3 Bft) 97,87 %
07.08.2021 12:04 21,3 C 23,9 C 22,8 C 73 % 1003,3 hPa 0,0 l/m 2 min 0 min 917 W/m 22,5 km/h (4 Bft) 97,87 %
07.08.2021 12:08 21,6 C 24,4 C 26,7 C 72 % 1003,3 hPa 0,0 l/m 4 min 0 min 948 W/m 22,5 km/h (4 Bft) 97,87 %
07.08.2021 12:10 21,8 C 24,4 C 27,3 C 72 % 1003,3 hPa 0,0 l/m 2 min 0 min 932 W/m 12,9 km/h (3 Bft) 97,14 %
07.08.2021 12:12 21,9 C 24,4 C 27,8 C 71 % 1003,3 hPa 0,0 l/m 2 min 0 min 807 W/m 22,5 km/h (4 Bft) 98,28 %
07.08.2021 12:14 22,0 C 24,4 C 27,3 C 70 % 1003,3 hPa 0,0 l/m 2 min 0 min 913 W/m 19,3 km/h (3 Bft) 95,74 %
07.08.2021 12:16 22,1 C 24,4 C 23,0 C 69 % 1003,3 hPa 0,0 l/m 2 min 0 min 1005 W/m 19,3 km/h (3 Bft) 97,14 %
07.08.2021 12:18 22,2 C 25,0 C 23,0 C 70 % 1003,3 hPa 0,0 l/m 2 min 0 min 1049 W/m 22,5 km/h (4 Bft) 98,31 %
07.08.2021 12:20 22,4 C 25,6 C 22,0 C 69 % 1003,2 hPa 0,0 l/m 2 min 0 min 1043 W/m 25,7 km/h (4 Bft) 95,74 %
07.08.2021 12:22 22,5 C 25,6 C 23,0 C 69 % 1003,2 hPa 0,0 l/m 2 min 0 min 1050 W/m 19,3 km/h (3 Bft) 94,29 %
07.08.2021 12:24 22,6 C 25,0 C 23,0 C 67 % 1003,1 hPa 0,0 l/m 2 min 0 min 909 W/m 19,3 km/h (3 Bft) 96,55 %
07.08.2021 12:26 22,6 C 24,4 C 23,0 C 66 % 1003,1 hPa 0,0 l/m 2 min 0 min 508 W/m 25,7 km/h (4 Bft) 97,87 %
07.08.2021 12:28 22,6 C 24,4 C 23,0 C 67 % 1003,0 hPa 0,0 l/m 2 min 0 min 983 W/m 19,3 km/h (3 Bft) 97,87 %
07.08.2021 12:30 22,6 C 25,0 C 23,0 C 67 % 1003,0 hPa 0,0 l/m 2 min 0 min 981 W/m 29,0 km/h (5 Bft) 97,87 %
07.08.2021 12:32 22,6 C 25,0 C 23,0 C 66 % 1002,9 hPa 0,0 l/m 2 min 0 min 982 W/m 25,7 km/h (4 Bft) 97,87 %
07.08.2021 12:34 22,6 C 25,0 C 23,0 C 66 % 1002,9 hPa 0,0 l/m 2 min 0 min 992 W/m 19,3 km/h (3 Bft) 97,83 %
07.08.2021 12:36 22,8 C 25,6 C 23,0 C 67 % 1002,9 hPa 0,0 l/m 2 min 0 min 1002 W/m 25,7 km/h (4 Bft) 97,87 %
07.08.2021 12:38 22,8 C 25,6 C 23,0 C 64 % 1002,8 hPa 0,0 l/m 2 min 0 min 950 W/m 19,3 km/h (3 Bft) 97,87 %
07.08.2021 12:40 22,9 C 25,0 C 22,0 C 65 % 1002,8 hPa 0,0 l/m 2 min 0 min 898 W/m 22,5 km/h (4 Bft) 100,00 %
07.08.2021 12:44 22,8 C 23,9 C 22,0 C 64 % 1002,7 hPa 0,0 l/m 0 min 0 min 309 W/m 16,1 km/h (3 Bft) 100,00 %
07.08.2021 12:46 22,6 C 23,3 C 22,0 C 64 % 1002,7 hPa 0,0 l/m 0 min 0 min 306 W/m 16,1 km/h (3 Bft) 95,74 %
07.08.2021 12:48 22,6 C 23,3 C 22,0 C 65 % 1002,7 hPa 0,0 l/m 0 min 0 min 366 W/m 19,3 km/h (3 Bft) 100,00 %
07.08.2021 12:50 22,5 C 23,3 C 22,0 C 67 % 1002,7 hPa 0,0 l/m 2 min 0 min 580 W/m 19,3 km/h (3 Bft) 100,00 %
07.08.2021 12:52 22,5 C 23,3 C 22,0 C 67 % 1002,7 hPa 0,0 l/m 2 min 0 min 600 W/m 25,7 km/h (4 Bft) 97,87 %
07.08.2021 12:54 22,4 C 22,8 C 22,0 C 66 % 1002,6 hPa 0,0 l/m 2 min 0 min 584 W/m 22,5 km/h (4 Bft) 100,00 %
07.08.2021 12:56 22,3 C 22,8 C 22,0 C 66 % 1002,6 hPa 0,0 l/m 0 min 0 min 375 W/m 12,9 km/h (3 Bft) 100,00 %
07.08.2021 12:58 22,3 C 22,8 C 22,0 C 67 % 1002,7 hPa 0,0 l/m 0 min 0 min 287 W/m 12,9 km/h (3 Bft) 100,00 %
07.08.2021 13:00 22,1 C 22,2 C 22,0 C 66 % 1002,7 hPa 0,0 l/m 0 min 0 min 261 W/m 9,7 km/h (2 Bft) 100,00 %
07.08.2021 13:02 22,0 C 21,7 C 22,0 C 66 % 1002,7 hPa 0,0 l/m 0 min 0 min 284 W/m 25,7 km/h (4 Bft) 95,74 %
07.08.2021 13:04 21,9 C 21,7 C 22,0 C 67 % 1002,6 hPa 0,0 l/m 0 min 0 min 322 W/m 35,4 km/h (5 Bft) 100,00 %
07.08.2021 13:06 21,8 C 22,2 C 22,0 C 66 % 1002,6 hPa 0,0 l/m 0 min 0 min 353 W/m 22,5 km/h (4 Bft) 100,00 %
07.08.2021 13:08 21,7 C 22,2 C 22,0 C 65 % 1002,6 hPa 0,0 l/m 0 min 0 min 380 W/m 16,1 km/h (3 Bft) 100,00 %
07.08.2021 13:10 21,7 C 22,2 C 22,0 C 65 % 1002,5 hPa 0,0 l/m 0 min 0 min 268 W/m 22,5 km/h (4 Bft) 100,00 %
07.08.2021 13:12 21,7 C 21,7 C 22,0 C 66 % 1002,6 hPa 0,0 l/m 0 min 0 min 258 W/m 25,7 km/h (4 Bft) 100,00 %
07.08.2021 13:14 21,7 C 21,7 C 22,0 C 66 % 1002,7 hPa 0,0 l/m 0 min 0 min 218 W/m 19,3 km/h (3 Bft) 100,00 %
07.08.2021 13:16 21,6 C 21,7 C 22,0 C 65 % 1002,6 hPa 0,0 l/m 0 min 0 min 196 W/m 29,0 km/h (5 Bft) 97,87 %
07.08.2021 13:18 21,6 C 21,7 C 22,0 C 65 % 1002,7 hPa 0,0 l/m 0 min 0 min 206 W/m 25,7 km/h (4 Bft) 97,87 %
07.08.2021 13:20 21,6 C 21,1 C 22,0 C 65 % 1002,7 hPa 0,0 l/m 0 min 0 min 212 W/m 29,0 km/h (5 Bft) 100,00 %
07.08.2021 13:22 21,5 C 21,1 C 22,0 C 66 % 1002,7 hPa 0,0 l/m 0 min 0 min 226 W/m 25,7 km/h (4 Bft) 95,74 %
07.08.2021 13:24 21,5 C 21,1 C 22,0 C 66 % 1002,7 hPa 0,0 l/m 0 min 0 min 282 W/m 35,4 km/h (5 Bft) 97,83 %
07.08.2021 13:26 21,4 C 21,7 C 22,0 C 67 % 1002,7 hPa 0,0 l/m 0 min 0 min 369 W/m 16,1 km/h (3 Bft) 97,87 %
07.08.2021 13:28 21,5 C 21,7 C 22,0 C 67 % 1002,6 hPa 0,0 l/m 2 min 0 min 401 W/m 19,3 km/h (3 Bft) 97,87 %
07.08.2021 13:30 21,5 C 21,7 C 22,0 C 67 % 1002,7 hPa 0,0 l/m 2 min 0 min 413 W/m 22,5 km/h (4 Bft) 97,87 %
07.08.2021 13:32 21,5 C 21,7 C 22,0 C 67 % 1002,6 hPa 0,0 l/m 0 min 0 min 356 W/m 22,5 km/h (4 Bft) 97,87 %
07.08.2021 13:34 21,5 C 22,2 C 22,0 C 67 % 1002,6 hPa 0,0 l/m 0 min 0 min 323 W/m 16,1 km/h (3 Bft) 97,87 %
07.08.2021 13:36 21,5 C 22,2 C 22,0 C 66 % 1002,6 hPa 0,0 l/m 0 min 0 min 366 W/m 12,9 km/h (3 Bft) 98,08 %
07.08.2021 13:38 21,5 C 22,2 C 22,0 C 66 % 1002,6 hPa 0,0 l/m 2 min 0 min 446 W/m 19,3 km/h (3 Bft) 97,56 %
07.08.2021 13:40 21,6 C 22,2 C 22,0 C 67 % 1002,5 hPa 0,0 l/m 2 min 0 min 419 W/m 19,3 km/h (3 Bft) 99,12 %
07.08.2021 13:45 21,7 C 22,2 C 22,0 C 66 % 1002,4 hPa 0,0 l/m 0 min 0 min 389 W/m 22,5 km/h (4 Bft) 100,00 %
07.08.2021 13:48 21,8 C 22,8 C 22,0 C 64 % 1002,4 hPa 0,0 l/m 0 min 0 min 394 W/m 12,9 km/h (3 Bft) 97,56 %
07.08.2021 13:50 21,9 C 22,8 C 22,0 C 64 % 1002,4 hPa 0,0 l/m 2 min 0 min 529 W/m 22,5 km/h (4 Bft) 96,83 %
07.08.2021 13:52 22,0 C 23,3 C 22,0 C 64 % 1002,4 hPa 0,0 l/m 2 min 0 min 428 W/m 19,3 km/h (3 Bft) 95,65 %
07.08.2021 13:54 22,0 C 22,8 C 22,0 C 64 % 1002,4 hPa 0,0 l/m 0 min 0 min 376 W/m 12,9 km/h (3 Bft) 95,74 %
07.08.2021 13:56 22,0 C 22,8 C 22,0 C 63 % 1002,4 hPa 0,0 l/m 0 min 0 min 342 W/m 19,3 km/h (3 Bft) 97,87 %
07.08.2021 13:58 22,0 C 22,8 C 22,0 C 63 % 1002,4 hPa 0,0 l/m 0 min 0 min 384 W/m 16,1 km/h (3 Bft) 91,49 %
07.08.2021 14:00 22,0 C 23,3 C 22,0 C 63 % 1002,3 hPa 0,0 l/m 2 min 0 min 397 W/m 16,1 km/h (3 Bft) 95,74 %
07.08.2021 14:02 22,1 C 23,9 C 22,0 C 64 % 1002,3 hPa 0,0 l/m 2 min 0 min 397 W/m 16,1 km/h (3 Bft) 93,62 %
07.08.2021 14:04 22,3 C 24,4 C 22,0 C 64 % 1002,3 hPa 0,0 l/m 2 min 0 min 764 W/m 19,3 km/h (3 Bft) 93,48 %
07.08.2021 14:06 22,4 C 23,9 C 22,0 C 64 % 1002,3 hPa 0,0 l/m 2 min 0 min 438 W/m 19,3 km/h (3 Bft) 93,62 %
07.08.2021 14:08 22,3 C 23,3 C 22,0 C 63 % 1002,3 hPa 0,0 l/m 0 min 0 min 336 W/m 25,7 km/h (4 Bft) 95,74 %
07.08.2021 14:10 22,2 C 22,8 C 22,0 C 63 % 1002,3 hPa 0,0 l/m 0 min 0 min 316 W/m 19,3 km/h (3 Bft) 95,74 %
07.08.2021 14:12 22,2 C 22,8 C 22,0 C 64 % 1002,3 hPa 0,0 l/m 0 min 0 min 316 W/m 29,0 km/h (5 Bft) 95,74 %
07.08.2021 14:14 22,2 C 23,3 C 22,0 C 64 % 1002,3 hPa 0,0 l/m 0 min 0 min 328 W/m 16,1 km/h (3 Bft) 95,74 %
07.08.2021 14:16 22,2 C 23,9 C 22,0 C 63 % 1002,2 hPa 0,0 l/m 2 min 0 min 427 W/m 32,2 km/h (5 Bft) 95,65 %
07.08.2021 14:18 22,3 C 23,9 C 22,0 C 64 % 1002,2 hPa 0,0 l/m 2 min 0 min 427 W/m 25,7 km/h (4 Bft) 95,74 %
07.08.2021 14:20 22,4 C 23,9 C 22,0 C 63 % 1002,2 hPa 0,0 l/m 2 min 0 min 436 W/m 32,2 km/h (5 Bft) 95,74 %
07.08.2021 14:22 22,4 C 23,9 C 22,0 C 63 % 1002,1 hPa 0,0 l/m 2 min 0 min 499 W/m 9,7 km/h (2 Bft) 95,74 %
07.08.2021 14:24 22,4 C 23,3 C 22,0 C 61 % 1002,2 hPa 0,0 l/m 2 min 0 min 445 W/m 32,2 km/h (5 Bft) 93,62 %
07.08.2021 14:26 22,4 C 23,3 C 22,0 C 61 % 1002,1 hPa 0,0 l/m 2 min 0 min 410 W/m 22,5 km/h (4 Bft) 95,74 %
07.08.2021 14:28 22,4 C 24,4 C 22,0 C 63 % 1002,1 hPa 0,0 l/m 2 min 0 min 836 W/m 16,1 km/h (3 Bft) 95,65 %
07.08.2021 14:30 22,6 C 25,6 C 22,0 C 64 % 1002,1 hPa 0,0 l/m 2 min 0 min 1070 W/m 19,3 km/h (3 Bft) 95,74 %
07.08.2021 14:32 22,8 C 25,6 C 22,0 C 63 % 1002,0 hPa 0,0 l/m 2 min 0 min 1085 W/m 29,0 km/h (5 Bft) 95,74 %
07.08.2021 14:34 22,9 C 26,7 C 22,0 C 63 % 1002,0 hPa 0,0 l/m 2 min 0 min 1015 W/m 6,4 km/h (2 Bft) 95,74 %
07.08.2021 14:36 23,0 C 26,1 C 22,0 C 63 % 1002,0 hPa 0,0 l/m 2 min 0 min 669 W/m 16,1 km/h (3 Bft) 97,87 %
07.08.2021 14:38 23,2 C 26,7 C 22,0 C 62 % 1002,0 hPa 0,0 l/m 2 min 0 min 705 W/m 12,9 km/h (3 Bft) 95,74 %
07.08.2021 14:40 23,3 C 26,7 C 22,0 C 61 % 1002,0 hPa 0,0 l/m 2 min 0 min 964 W/m 19,3 km/h (3 Bft) 97,87 %
07.08.2021 14:42 23,5 C 27,2 C 22,0 C 61 % 1002,0 hPa 0,0 l/m 2 min 0 min 931 W/m 16,1 km/h (3 Bft) 97,87 %
07.08.2021 14:44 23,6 C 27,2 C 22,0 C 61 % 1002,0 hPa 0,0 l/m 2 min 0 min 923 W/m 16,1 km/h (3 Bft) 100,00 %
07.08.2021 14:46 23,7 C 27,2 C 22,0 C 59 % 1002,0 hPa 0,0 l/m 2 min 0 min 929 W/m 19,3 km/h (3 Bft) 95,74 %
07.08.2021 14:48 23,8 C 27,2 C 22,0 C 59 % 1001,9 hPa 0,0 l/m 2 min 0 min 944 W/m 22,5 km/h (4 Bft) 97,87 %
07.08.2021 14:50 23,9 C 27,2 C 22,0 C 58 % 1002,0 hPa 0,0 l/m 2 min 0 min 962 W/m 29,0 km/h (5 Bft) 97,83 %
07.08.2021 14:52 23,9 C 27,2 C 22,0 C 58 % 1001,8 hPa 0,0 l/m 2 min 0 min 950 W/m 22,5 km/h (4 Bft) 95,74 %
07.08.2021 14:54 24,0 C 26,7 C 22,0 C 59 % 1001,8 hPa 0,0 l/m 2 min 0 min 944 W/m 12,9 km/h (3 Bft) 97,87 %
07.08.2021 14:56 23,9 C 25,6 C 22,0 C 58 % 1001,9 hPa 0,0 l/m 2 min 0 min 513 W/m 22,5 km/h (4 Bft) 97,87 %
07.08.2021 14:58 23,8 C 25,0 C 22,0 C 59 % 1001,8 hPa 0,0 l/m 0 min 0 min 277 W/m 9,7 km/h (2 Bft) 100,00 %
07.08.2021 15:00 23,8 C 26,1 C 22,0 C 60 % 1001,8 hPa 0,0 l/m 2 min 0 min 966 W/m 22,5 km/h (4 Bft) 100,00 %
07.08.2021 15:02 23,8 C 25,6 C 22,0 C 58 % 1001,9 hPa 0,0 l/m 2 min 0 min 958 W/m 25,7 km/h (4 Bft) 100,00 %
07.08.2021 15:04 23,8 C 25,6 C 22,0 C 58 % 1001,9 hPa 0,0 l/m 2 min 0 min 946 W/m 12,9 km/h (3 Bft) 100,00 %
07.08.2021 15:06 23,8 C 25,6 C 22,0 C 58 % 1001,9 hPa 0,0 l/m 2 min 0 min 946 W/m 12,9 km/h (3 Bft) 100,00 %
07.08.2021 15:08 23,8 C 25,6 C 22,0 C 58 % 1001,9 hPa 0,0 l/m 2 min 0 min 946 W/m 12,9 km/h (3 Bft) 100,00 %
07.08.2021 15:10 23,5 C 23,3 C 22,0 C 57 % 1001,8 hPa 0,0 l/m 0 min 0 min 373 W/m 22,5 km/h (4 Bft) 100,00 %
07.08.2021 15:12 23,3 C 23,3 C 22,0 C 56 % 1001,7 hPa 0,0 l/m 2 min 0 min 377 W/m 12,9 km/h (3 Bft) 97,87 %
07.08.2021 15:14 23,2 C 23,3 C 22,0 C 56 % 1001,8 hPa 0,0 l/m 2 min 0 min 564 W/m 29,0 km/h (5 Bft) 100,00 %
07.08.2021 15:16 23,1 C 23,9 C 22,0 C 57 % 1001,7 hPa 0,0 l/m 2 min 0 min 500 W/m 16,1 km/h (3 Bft) 100,00 %
07.08.2021 15:18 23,1 C 24,4 C 22,0 C 57 % 1001,7 hPa 0,0 l/m 2 min 0 min 385 W/m 35,4 km/h (5 Bft) 97,87 %
07.08.2021 15:20 23,1 C 25,0 C 22,0 C 57 % 1001,7 hPa 0,0 l/m 2 min 0 min 474 W/m 35,4 km/h (5 Bft) 100,00 %
07.08.2021 15:22 23,2 C 24,4 C 22,0 C 57 % 1001,7 hPa 0,0 l/m 2 min 0 min 448 W/m 29,0 km/h (5 Bft) 100,00 %
07.08.2021 15:24 23,3 C 24,4 C 22,0 C 58 % 1001,7 hPa 0,0 l/m 0 min 0 min 303 W/m 16,1 km/h (3 Bft) 97,87 %
07.08.2021 15:26 23,3 C 23,9 C 22,0 C 58 % 1001,8 hPa 0,0 l/m 0 min 0 min 325 W/m 16,1 km/h (3 Bft) 100,00 %
07.08.2021 15:28 23,2 C 23,3 C 22,0 C 57 % 1001,8 hPa 0,0 l/m 0 min 0 min 313 W/m 45,1 km/h (6 Bft) 100,00 %
07.08.2021 15:30 23,1 C 23,3 C 22,0 C 56 % 1001,8 hPa 0,0 l/m 0 min 0 min 284 W/m 25,7 km/h (4 Bft) 100,00 %
07.08.2021 15:32 23,0 C 22,8 C 22,0 C 57 % 1001,7 hPa 0,0 l/m 0 min 0 min 287 W/m 29,0 km/h (5 Bft) 100,00 %
07.08.2021 15:34 22,9 C 22,8 C 22,0 C 57 % 1001,7 hPa 0,0 l/m 0 min 0 min 312 W/m 29,0 km/h (5 Bft) 100,00 %
07.08.2021 15:36 22,9 C 22,8 C 22,0 C 58 % 1001,7 hPa 0,0 l/m 0 min 0 min 344 W/m 22,5 km/h (4 Bft) 100,00 %
07.08.2021 15:38 22,9 C 23,3 C 22,0 C 59 % 1001,7 hPa 0,0 l/m 2 min 0 min 402 W/m 16,1 km/h (3 Bft) 100,00 %
07.08.2021 15:40 22,9 C 23,9 C 22,0 C 59 % 1001,6 hPa 0,0 l/m 2 min 0 min 441 W/m 12,9 km/h (3 Bft) 97,87 %
07.08.2021 15:42 23,0 C 25,6 C 22,0 C 59 % 1001,6 hPa 0,0 l/m 2 min 0 min 441 W/m 16,1 km/h (3 Bft) 100,00 %
07.08.2021 15:44 23,1 C 25,0 C 22,0 C 59 % 1001,6 hPa 0,0 l/m 2 min 0 min 398 W/m 16,1 km/h (3 Bft) 97,87 %
07.08.2021 15:46 23,2 C 24,4 C 22,0 C 59 % 1001,6 hPa 0,0 l/m 0 min 0 min 267 W/m 16,1 km/h (3 Bft) 100,00 %
07.08.2021 15:48 23,3 C 24,4 C 22,0 C 59 % 1001,6 hPa 0,0 l/m 0 min 0 min 258 W/m 16,1 km/h (3 Bft) 100,00 %
07.08.2021 15:50 23,3 C 23,9 C 22,0 C 58 % 1001,5 hPa 0,0 l/m 0 min 0 min 289 W/m 12,9 km/h (3 Bft) 100,00 %
07.08.2021 15:52 23,3 C 24,4 C 22,0 C 58 % 1001,5 hPa 0,0 l/m 0 min 0 min 308 W/m 12,9 km/h (3 Bft) 95,74 %
07.08.2021 15:54 23,4 C 25,0 C 22,0 C 58 % 1001,5 hPa 0,0 l/m 2 min 0 min 546 W/m 16,1 km/h (3 Bft) 100,00 %
07.08.2021 15:56 23,4 C 25,0 C 22,0 C 58 % 1001,5 hPa 0,0 l/m 2 min 0 min 608 W/m 29,0 km/h (5 Bft) 97,87 %
07.08.2021 15:58 23,5 C 25,6 C 22,0 C 58 % 1001,5 hPa 0,0 l/m 2 min 0 min 657 W/m 16,1 km/h (3 Bft) 95,74 %
07.08.2021 16:00 23,5 C 25,6 C 22,0 C 57 % 1001,5 hPa 0,0 l/m 2 min 0 min 657 W/m 25,7 km/h (4 Bft) 93,62 %
07.08.2021 16:02 23,5 C 25,0 C 22,0 C 56 % 1001,6 hPa 0,0 l/m 2 min 0 min 657 W/m 22,5 km/h (4 Bft) 97,87 %
07.08.2021 16:04 23,4 C 24,4 C 22,0 C 56 % 1001,5 hPa 0,0 l/m 2 min 0 min 400 W/m 29,0 km/h (5 Bft) 95,74 %
07.08.2021 16:06 23,4 C 25,0 C 22,0 C 57 % 1001,5 hPa 0,0 l/m 0 min 0 min 332 W/m 22,5 km/h (4 Bft) 95,65 %
07.08.2021 16:08 23,4 C 26,1 C 20,6 C 57 % 1001,5 hPa 0,0 l/m 2 min 0 min 681 W/m 19,3 km/h (3 Bft) 95,74 %
07.08.2021 16:10 23,5 C 27,2 C 20,6 C 57 % 1001,5 hPa 0,0 l/m 2 min 0 min 853 W/m 22,5 km/h (4 Bft) 95,74 %
07.08.2021 16:12 23,6 C 27,2 C 21,1 C 57 % 1001,5 hPa 0,0 l/m 2 min 0 min 932 W/m 19,3 km/h (3 Bft) 93,62 %
07.08.2021 16:14 23,8 C 28,3 C 21,1 C 57 % 1001,4 hPa 0,0 l/m 2 min 0 min 921 W/m 16,1 km/h (3 Bft) 93,62 %
07.08.2021 16:16 23,9 C 27,8 C 21,1 C 57 % 1001,4 hPa 0,0 l/m 2 min 0 min 896 W/m 25,7 km/h (4 Bft) 95,74 %
07.08.2021 16:18 23,9 C 25,6 C 21,1 C 57 % 1001,4 hPa 0,0 l/m 2 min 0 min 444 W/m 16,1 km/h (3 Bft) 93,48 %
07.08.2021 16:20 23,9 C 24,4 C 20,6 C 56 % 1001,4 hPa 0,0 l/m 0 min 0 min 124 W/m 16,1 km/h (3 Bft) 95,74 %
07.08.2021 16:22 23,8 C 23,9 C 20,6 C 56 % 1001,4 hPa 0,0 l/m 0 min 0 min 101 W/m 16,1 km/h (3 Bft) 95,74 %
07.08.2021 16:24 23,7 C 22,8 C 20,0 C 56 % 1001,5 hPa 0,0 l/m 0 min 0 min 77 W/m 12,9 km/h (3 Bft) 95,74 %
07.08.2021 16:26 23,5 C 22,8 C 20,0 C 56 % 1001,6 hPa 0,0 l/m 0 min 0 min 67 W/m 29,0 km/h (5 Bft) 95,74 %
07.08.2021 16:28 23,3 C 22,2 C 20,0 C 57 % 1001,5 hPa 0,0 l/m 0 min 0 min 62 W/m 29,0 km/h (5 Bft) 93,62 %
07.08.2021 16:30 23,1 C 22,2 C 19,5 C 57 % 1001,6 hPa 0,0 l/m 0 min 0 min 69 W/m 25,7 km/h (4 Bft) 95,65 %
07.08.2021 16:32 23,0 C 22,2 C 19,5 C 58 % 1001,5 hPa 0,0 l/m 0 min 0 min 102 W/m 22,5 km/h (4 Bft) 93,62 %
07.08.2021 16:34 22,9 C 22,2 C 19,5 C 58 % 1001,5 hPa 0,0 l/m 0 min 0 min 149 W/m 19,3 km/h (3 Bft) 95,74 %
07.08.2021 16:36 22,8 C 22,2 C 19,5 C 58 % 1001,5 hPa 0,0 l/m 0 min 0 min 188 W/m 22,5 km/h (4 Bft) 97,87 %
07.08.2021 16:38 22,7 C 22,2 C 19,5 C 58 % 1001,5 hPa 0,0 l/m 0 min 0 min 180 W/m 25,7 km/h (4 Bft) 97,87 %
07.08.2021 16:40 22,7 C 22,2 C 19,5 C 58 % 1001,4 hPa 0,0 l/m 0 min 0 min 176 W/m 12,9 km/h (3 Bft) 100,00 %
07.08.2021 16:42 22,6 C 22,8 C 19,5 C 58 % 1001,4 hPa 0,0 l/m 0 min 0 min 228 W/m 32,2 km/h (5 Bft) 100,00 %
07.08.2021 16:44 22,6 C 22,8 C 20,0 C 58 % 1001,3 hPa 0,0 l/m 0 min 0 min 272 W/m 22,5 km/h (4 Bft) 97,87 %
07.08.2021 16:46 22,7 C 23,3 C 20,0 C 59 % 1001,3 hPa 0,0 l/m 2 min 0 min 317 W/m 16,1 km/h (3 Bft) 100,00 %
07.08.2021 16:48 22,8 C 23,3 C 20,0 C 59 % 1001,3 hPa 0,0 l/m 0 min 0 min 298 W/m 9,7 km/h (2 Bft) 100,00 %
07.08.2021 16:50 22,8 C 23,3 C 20,0 C 59 % 1001,3 hPa 0,0 l/m 0 min 0 min 274 W/m 12,9 km/h (3 Bft) 100,00 %
07.08.2021 16:52 22,9 C 23,3 C 20,0 C 60 % 1001,2 hPa 0,0 l/m 0 min 0 min 255 W/m 9,7 km/h (2 Bft) 93,48 %
07.08.2021 16:54 22,9 C 23,9 C 20,6 C 60 % 1001,2 hPa 0,0 l/m 0 min 0 min 294 W/m 6,4 km/h (2 Bft) 100,00 %
07.08.2021 16:56 23,0 C 25,0 C 20,6 C 60 % 1001,1 hPa 0,0 l/m 2 min 0 min 454 W/m 16,1 km/h (3 Bft) 97,87 %
07.08.2021 16:58 23,1 C 25,6 C 20,6 C 60 % 1001,1 hPa 0,0 l/m 2 min 0 min 457 W/m 12,9 km/h (3 Bft) 100,00 %
07.08.2021 17:00 23,2 C 25,6 C 20,6 C 59 % 1001,1 hPa 0,0 l/m 2 min 0 min 415 W/m 16,1 km/h (3 Bft) 97,87 %
07.08.2021 17:02 23,3 C 25,0 C 20,6 C 58 % 1001,1 hPa 0,0 l/m 2 min 0 min 339 W/m 22,5 km/h (4 Bft) 95,74 %
07.08.2021 17:04 23,3 C 24,4 C 20,6 C 58 % 1001,1 hPa 0,0 l/m 0 min 0 min 268 W/m 19,3 km/h (3 Bft) 100,00 %
07.08.2021 17:06 23,3 C 24,4 C 20,6 C 58 % 1001,1 hPa 0,0 l/m 2 min 0 min 310 W/m 22,5 km/h (4 Bft) 100,00 %
07.08.2021 17:08 23,3 C 23,9 C 20,6 C 58 % 1001,0 hPa 0,0 l/m 2 min 0 min 305 W/m 22,5 km/h (4 Bft) 100,00 %
07.08.2021 17:10 23,3 C 23,3 C 20,6 C 58 % 1001,1 hPa 0,0 l/m 0 min 0 min 263 W/m 22,5 km/h (4 Bft) 100,00 %
07.08.2021 17:12 23,2 C 23,3 C 20,0 C 58 % 1001,1 hPa 0,0 l/m 0 min 0 min 216 W/m 22,5 km/h (4 Bft) 97,87 %
07.08.2021 17:14 23,1 C 22,8 C 20,0 C 57 % 1001,1 hPa 0,0 l/m 0 min 0 min 197 W/m 16,1 km/h (3 Bft) 95,74 %
07.08.2021 17:16 23,1 C 22,8 C 20,0 C 57 % 1001,1 hPa 0,0 l/m 0 min 0 min 178 W/m 22,5 km/h (4 Bft) 97,83 %
07.08.2021 17:18 23,0 C 22,8 C 20,0 C 58 % 1001,1 hPa 0,0 l/m 0 min 0 min 160 W/m 19,3 km/h (3 Bft) 100,00 %
07.08.2021 17:20 23,0 C 22,2 C 20,0 C 58 % 1001,0 hPa 0,0 l/m 0 min 0 min 146 W/m 19,3 km/h (3 Bft) 97,87 %
07.08.2021 17:22 22,9 C 22,2 C 20,0 C 58 % 1001,1 hPa 0,0 l/m 0 min 0 min 131 W/m 22,5 km/h (4 Bft) 95,74 %
07.08.2021 17:24 22,8 C 22,2 C 19,5 C 58 % 1001,1 hPa 0,0 l/m 0 min 0 min 115 W/m 19,3 km/h (3 Bft) 97,87 %
07.08.2021 17:26 22,7 C 22,2 C 19,5 C 58 % 1001,2 hPa 0,0 l/m 0 min 0 min 119 W/m 22,5 km/h (4 Bft) 97,87 %
07.08.2021 17:28 22,6 C 22,2 C 19,5 C 59 % 1001,1 hPa 0,0 l/m 0 min 0 min 151 W/m 9,7 km/h (2 Bft) 95,65 %
07.08.2021 17:30 22,6 C 22,8 C 19,5 C 60 % 1001,0 hPa 0,0 l/m 0 min 0 min 209 W/m 6,4 km/h (2 Bft) 97,87 %
07.08.2021 17:32 22,6 C 22,8 C 19,5 C 60 % 1001,0 hPa 0,0 l/m 0 min 0 min 236 W/m 6,4 km/h (2 Bft) 97,87 %
07.08.2021 17:34 22,6 C 22,8 C 20,0 C 60 % 1001,0 hPa 0,0 l/m 0 min 0 min 237 W/m 19,3 km/h (3 Bft) 97,87 %
07.08.2021 17:36 22,6 C 22,8 C 20,0 C 60 % 1001,0 hPa 0,0 l/m 0 min 0 min 247 W/m 12,9 km/h (3 Bft) 97,87 %
07.08.2021 17:38 22,7 C 23,3 C 20,0 C 59 % 1000,9 hPa 0,0 l/m 2 min 0 min 286 W/m 22,5 km/h (4 Bft) 97,87 %
07.08.2021 17:40 22,8 C 23,3 C 20,0 C 59 % 1000,9 hPa 0,0 l/m 2 min 0 min 322 W/m 12,9 km/h (3 Bft) 97,83 %
07.08.2021 17:42 22,8 C 23,3 C 20,0 C 59 % 1000,9 hPa 0,0 l/m 2 min 0 min 339 W/m 12,9 km/h (3 Bft) 97,87 %
07.08.2021 17:44 22,9 C 23,9 C 20,0 C 59 % 1000,9 hPa 0,0 l/m 2 min 0 min 324 W/m 16,1 km/h (3 Bft) 95,74 %
07.08.2021 17:46 22,9 C 23,3 C 20,6 C 59 % 1000,9 hPa 0,0 l/m 2 min 0 min 259 W/m 32,2 km/h (5 Bft) 97,87 %
07.08.2021 17:48 23,0 C 23,3 C 20,0 C 59 % 1001,0 hPa 0,0 l/m 0 min 0 min 211 W/m 12,9 km/h (3 Bft) 97,87 %
07.08.2021 17:50 23,0 C 23,3 C 20,0 C 59 % 1001,0 hPa 0,0 l/m 0 min 0 min 204 W/m 16,1 km/h (3 Bft) 97,87 %
07.08.2021 17:52 23,0 C 22,8 C 20,0 C 59 % 1001,0 hPa 0,0 l/m 2 min 0 min 239 W/m 22,5 km/h (4 Bft) 97,83 %
07.08.2021 17:54 23,0 C 22,8 C 20,0 C 59 % 1000,9 hPa 0,0 l/m 2 min 0 min 257 W/m 19,3 km/h (3 Bft) 95,74 %
07.08.2021 17:56 23,0 C 22,8 C 20,0 C 58 % 1000,9 hPa 0,0 l/m 2 min 0 min 236 W/m 19,3 km/h (3 Bft) 97,87 %
07.08.2021 17:58 23,0 C 22,8 C 20,0 C 59 % 1000,9 hPa 0,0 l/m 0 min 0 min 205 W/m 32,2 km/h (5 Bft) 97,87 %
07.08.2021 18:00 23,0 C 22,8 C 20,0 C 58 % 1000,9 hPa 0,0 l/m 0 min 0 min 194 W/m 16,1 km/h (3 Bft) 97,87 %
07.08.2021 18:02 23,0 C 22,8 C 20,0 C 58 % 1001,0 hPa 0,0 l/m 0 min 0 min 201 W/m 32,2 km/h (5 Bft) 97,87 %
07.08.2021 18:04 22,9 C 22,8 C 20,0 C 57 % 1001,0 hPa 0,0 l/m 2 min 0 min 228 W/m 41,8 km/h (6 Bft) 95,65 %
07.08.2021 18:08 22,9 C 22,8 C 20,0 C 58 % 1001,0 hPa 0,0 l/m 4 min 0 min 231 W/m 22,5 km/h (4 Bft) 97,92 %
07.08.2021 18:10 22,9 C 22,8 C 20,0 C 58 % 1001,0 hPa 0,0 l/m 0 min 0 min 193 W/m 29,0 km/h (5 Bft) 93,62 %
07.08.2021 18:12 22,9 C 22,8 C 20,0 C 59 % 1001,1 hPa 0,0 l/m 0 min 0 min 181 W/m 12,9 km/h (3 Bft) 97,87 %
07.08.2021 18:14 22,8 C 22,2 C 20,0 C 58 % 1001,2 hPa 0,0 l/m 0 min 0 min 181 W/m 22,5 km/h (4 Bft) 95,74 %
07.08.2021 18:16 22,7 C 22,2 C 20,0 C 58 % 1001,2 hPa 0,0 l/m 0 min 0 min 153 W/m 12,9 km/h (3 Bft) 97,83 %
07.08.2021 18:18 22,7 C 22,2 C 20,0 C 60 % 1001,2 hPa 0,0 l/m 0 min 0 min 151 W/m 19,3 km/h (3 Bft) 100,00 %
07.08.2021 18:20 22,6 C 22,8 C 19,5 C 59 % 1001,2 hPa 0,0 l/m 0 min 0 min 186 W/m 12,9 km/h (3 Bft) 97,87 %
07.08.2021 18:22 22,6 C 23,3 C 20,0 C 60 % 1001,1 hPa 0,0 l/m 2 min 0 min 255 W/m 16,1 km/h (3 Bft) 97,87 %
07.08.2021 18:24 22,7 C 23,9 C 20,0 C 60 % 1001,2 hPa 0,0 l/m 2 min 0 min 264 W/m 12,9 km/h (3 Bft) 95,74 %
07.08.2021 18:26 22,8 C 24,4 C 20,0 C 60 % 1001,1 hPa 0,0 l/m 2 min 0 min 251 W/m 6,4 km/h (2 Bft) 97,83 %
07.08.2021 18:28 22,9 C 23,9 C 20,0 C 60 % 1001,2 hPa 0,0 l/m 0 min 0 min 182 W/m 22,5 km/h (4 Bft) 95,74 %
07.08.2021 18:30 22,9 C 23,3 C 20,0 C 60 % 1001,2 hPa 0,0 l/m 0 min 0 min 95 W/m 32,2 km/h (5 Bft) 95,74 %
07.08.2021 18:32 22,9 C 22,8 C 19,5 C 60 % 1001,2 hPa 0,0 l/m 0 min 0 min 75 W/m 16,1 km/h (3 Bft) 93,62 %
07.08.2021 18:34 22,8 C 22,2 C 19,5 C 59 % 1001,3 hPa 0,0 l/m 0 min 0 min 79 W/m 22,5 km/h (4 Bft) 95,74 %
07.08.2021 18:36 22,7 C 22,2 C 19,5 C 60 % 1001,2 hPa 0,0 l/m 0 min 0 min 77 W/m 38,6 km/h (5 Bft) 95,74 %
07.08.2021 18:38 22,6 C 21,7 C 19,5 C 61 % 1001,2 hPa 0,0 l/m 0 min 0 min 71 W/m 25,7 km/h (4 Bft) 97,83 %
07.08.2021 18:40 22,6 C 21,7 C 19,5 C 60 % 1001,2 hPa 0,0 l/m 0 min 0 min 58 W/m 29,0 km/h (5 Bft) 93,62 %
07.08.2021 18:42 22,5 C 21,7 C 19,5 C 61 % 1001,2 hPa 0,0 l/m 0 min 0 min 52 W/m 22,5 km/h (4 Bft) 95,74 %
07.08.2021 18:44 22,4 C 21,7 C 18,9 C 61 % 1001,2 hPa 0,0 l/m 0 min 0 min 46 W/m 29,0 km/h (5 Bft) 97,87 %
07.08.2021 18:46 22,4 C 21,7 C 18,9 C 61 % 1001,1 hPa 0,0 l/m 0 min 0 min 56 W/m 22,5 km/h (4 Bft) 97,87 %
07.08.2021 18:48 22,3 C 21,7 C 18,9 C 62 % 1001,0 hPa 0,0 l/m 0 min 0 min 86 W/m 29,0 km/h (5 Bft) 97,87 %
07.08.2021 18:50 22,3 C 21,7 C 18,9 C 62 % 1001,1 hPa 0,0 l/m 0 min 0 min 97 W/m 41,8 km/h (6 Bft) 95,74 %
07.08.2021 18:52 22,3 C 21,7 C 18,9 C 62 % 1001,0 hPa 0,0 l/m 0 min 0 min 102 W/m 25,7 km/h (4 Bft) 97,83 %
07.08.2021 18:54 22,3 C 21,7 C 18,9 C 62 % 1001,0 hPa 0,0 l/m 0 min 0 min 126 W/m 16,1 km/h (3 Bft) 97,87 %
07.08.2021 18:56 22,3 C 21,7 C 18,9 C 63 % 1001,0 hPa 0,0 l/m 0 min 0 min 121 W/m 19,3 km/h (3 Bft) 97,87 %
07.08.2021 18:58 22,3 C 21,7 C 18,9 C 63 % 1001,2 hPa 0,0 l/m 0 min 0 min 88 W/m 25,7 km/h (4 Bft) 95,74 %
07.08.2021 19:00 22,3 C 22,2 C 18,9 C 63 % 1001,2 hPa 0,0 l/m 0 min 0 min 88 W/m 16,1 km/h (3 Bft) 97,87 %
07.08.2021 19:02 22,3 C 22,2 C 19,5 C 63 % 1001,2 hPa 0,0 l/m 0 min 0 min 138 W/m 29,0 km/h (5 Bft) 95,74 %
07.08.2021 19:04 22,3 C 22,2 C 19,5 C 63 % 1001,2 hPa 0,0 l/m 0 min 0 min 150 W/m 35,4 km/h (5 Bft) 97,83 %
07.08.2021 19:06 22,4 C 22,2 C 19,5 C 63 % 1001,2 hPa 0,0 l/m 0 min 0 min 127 W/m 22,5 km/h (4 Bft) 97,87 %
07.08.2021 19:08 22,4 C 22,2 C 19,5 C 64 % 1001,3 hPa 0,0 l/m 0 min 0 min 102 W/m 32,2 km/h (5 Bft) 95,83 %
07.08.2021 19:10 22,4 C 22,2 C 19,5 C 64 % 1001,2 hPa 0,0 l/m 0 min 0 min 107 W/m 22,5 km/h (4 Bft) 97,87 %
07.08.2021 19:12 22,4 C 22,2 C 19,5 C 64 % 1001,3 hPa 0,0 l/m 0 min 0 min 126 W/m 29,0 km/h (5 Bft) 100,00 %
07.08.2021 19:14 22,4 C 22,2 C 19,5 C 63 % 1001,4 hPa 0,0 l/m 2 min 0 min 140 W/m 48,3 km/h (6 Bft) 100,00 %
07.08.2021 19:16 22,4 C 22,2 C 19,5 C 63 % 1001,3 hPa 0,0 l/m 0 min 0 min 133 W/m 25,7 km/h (4 Bft) 97,87 %
07.08.2021 19:18 22,4 C 21,7 C 19,5 C 62 % 1001,3 hPa 0,0 l/m 0 min 0 min 118 W/m 32,2 km/h (5 Bft) 100,00 %
07.08.2021 19:20 22,4 C 21,7 C 19,5 C 62 % 1001,2 hPa 0,0 l/m 0 min 0 min 107 W/m 32,2 km/h (5 Bft) 100,00 %
07.08.2021 19:22 22,3 C 21,7 C 19,5 C 62 % 1001,2 hPa 0,0 l/m 2 min 0 min 129 W/m 22,5 km/h (4 Bft) 100,00 %
07.08.2021 19:24 22,3 C 22,2 C 19,5 C 63 % 1001,2 hPa 0,0 l/m 2 min 0 min 163 W/m 19,3 km/h (3 Bft) 97,87 %
07.08.2021 19:26 22,3 C 22,2 C 19,5 C 63 % 1001,2 hPa 0,0 l/m 2 min 0 min 172 W/m 22,5 km/h (4 Bft) 97,83 %
07.08.2021 19:28 22,3 C 22,2 C 19,5 C 62 % 1001,3 hPa 0,0 l/m 2 min 0 min 160 W/m 38,6 km/h (5 Bft) 100,00 %
07.08.2021 19:30 22,3 C 21,7 C 19,5 C 63 % 1001,2 hPa 0,0 l/m 2 min 0 min 156 W/m 25,7 km/h (4 Bft) 100,00 %
07.08.2021 19:32 22,3 C 21,7 C 19,5 C 63 % 1001,2 hPa 0,0 l/m 2 min 0 min 149 W/m 29,0 km/h (5 Bft) 100,00 %
07.08.2021 19:34 22,3 C 21,7 C 19,5 C 63 % 1001,2 hPa 0,0 l/m 2 min 0 min 134 W/m 19,3 km/h (3 Bft) 97,87 %
07.08.2021 19:36 22,2 C 21,7 C 18,9 C 63 % 1001,2 hPa 0,0 l/m 2 min 0 min 138 W/m 22,5 km/h (4 Bft) 100,00 %
07.08.2021 19:38 22,2 C 21,7 C 18,9 C 63 % 1001,2 hPa 0,0 l/m 2 min 0 min 140 W/m 25,7 km/h (4 Bft) 100,00 %
07.08.2021 19:40 22,2 C 21,7 C 18,9 C 63 % 1001,2 hPa 0,0 l/m 2 min 0 min 119 W/m 19,3 km/h (3 Bft) 100,00 %
07.08.2021 19:42 22,1 C 21,7 C 18,9 C 63 % 1001,2 hPa 0,0 l/m 2 min 0 min 105 W/m 29,0 km/h (5 Bft) 100,00 %
07.08.2021 19:44 22,1 C 21,7 C 18,9 C 64 % 1001,2 hPa 0,0 l/m 0 min 0 min 98 W/m 16,1 km/h (3 Bft) 100,00 %
07.08.2021 19:46 22,1 C 21,7 C 18,9 C 64 % 1001,2 hPa 0,0 l/m 0 min 0 min 95 W/m 25,7 km/h (4 Bft) 100,00 %
07.08.2021 19:48 22,0 C 21,1 C 18,9 C 64 % 1001,3 hPa 0,0 l/m 0 min 0 min 90 W/m 25,7 km/h (4 Bft) 100,00 %
07.08.2021 19:50 22,0 C 21,1 C 18,9 C 65 % 1001,3 hPa 0,0 l/m 0 min 0 min 84 W/m 16,1 km/h (3 Bft) 100,00 %
07.08.2021 19:52 22,0 C 21,1 C 18,9 C 65 % 1001,3 hPa 0,0 l/m 0 min 0 min 77 W/m 25,7 km/h (4 Bft) 100,00 %
07.08.2021 19:54 21,9 C 21,1 C 18,9 C 65 % 1001,3 hPa 0,0 l/m 0 min 0 min 73 W/m 38,6 km/h (5 Bft) 97,87 %
07.08.2021 19:56 21,9 C 21,1 C 18,9 C 65 % 1001,4 hPa 0,0 l/m 0 min 0 min 69 W/m 16,1 km/h (3 Bft) 97,87 %
07.08.2021 19:58 21,8 C 21,1 C 18,9 C 65 % 1001,5 hPa 0,0 l/m 0 min 0 min 64 W/m 32,2 km/h (5 Bft) 100,00 %
07.08.2021 20:00 21,8 C 21,1 C 18,4 C 65 % 1001,4 hPa 0,0 l/m 0 min 0 min 62 W/m 32,2 km/h (5 Bft) 100,00 %
07.08.2021 20:02 21,7 C 21,1 C 18,4 C 65 % 1001,5 hPa 0,0 l/m 0 min 0 min 60 W/m 25,7 km/h (4 Bft) 100,00 %
07.08.2021 20:04 21,6 C 21,1 C 18,4 C 66 % 1001,5 hPa 0,0 l/m 0 min 0 min 58 W/m 25,7 km/h (4 Bft) 100,00 %
07.08.2021 20:06 21,6 C 20,6 C 18,4 C 66 % 1001,5 hPa 0,0 l/m 0 min 0 min 57 W/m 32,2 km/h (5 Bft) 100,00 %
07.08.2021 20:08 21,6 C 20,6 C 18,4 C 66 % 1001,5 hPa 0,0 l/m 0 min 0 min 55 W/m 19,3 km/h (3 Bft) 97,87 %
07.08.2021 20:10 21,5 C 20,6 C 18,4 C 66 % 1001,5 hPa 0,0 l/m 0 min 0 min 53 W/m 29,0 km/h (5 Bft) 93,62 %
07.08.2021 20:12 21,5 C 20,6 C 18,4 C 66 % 1001,6 hPa 0,0 l/m 0 min 0 min 46 W/m 29,0 km/h (5 Bft) 93,62 %
07.08.2021 20:14 21,5 C 20,6 C 18,4 C 67 % 1001,6 hPa 0,0 l/m 0 min 0 min 43 W/m 16,1 km/h (3 Bft) 93,48 %
07.08.2021 20:16 21,5 C 20,6 C 18,4 C 67 % 1001,6 hPa 0,0 l/m 0 min 0 min 40 W/m 9,7 km/h (2 Bft) 93,62 %
07.08.2021 20:18 21,5 C 20,6 C 18,4 C 67 % 1001,7 hPa 0,0 l/m 0 min 0 min 38 W/m 19,3 km/h (3 Bft) 97,87 %
07.08.2021 20:20 21,4 C 20,6 C 17,8 C 68 % 1001,8 hPa 0,0 l/m 0 min 0 min 35 W/m 25,7 km/h (4 Bft) 95,74 %
07.08.2021 20:22 21,4 C 20,6 C 17,8 C 68 % 1001,7 hPa 0,0 l/m 0 min 0 min 29 W/m 25,7 km/h (4 Bft) 95,74 %
07.08.2021 20:24 21,3 C 20,6 C 17,8 C 68 % 1001,8 hPa 0,0 l/m 0 min 0 min 24 W/m 25,7 km/h (4 Bft) 91,30 %
07.08.2021 20:26 21,2 C 20,0 C 17,8 C 68 % 1001,9 hPa 0,0 l/m 0 min 0 min 21 W/m 25,7 km/h (4 Bft) 95,74 %
07.08.2021 20:28 21,1 C 20,0 C 17,8 C 68 % 1001,9 hPa 0,0 l/m 0 min 0 min 17 W/m 19,3 km/h (3 Bft) 91,49 %
07.08.2021 20:30 21,1 C 20,0 C 17,8 C 69 % 1002,0 hPa 0,0 l/m 0 min 0 min 13 W/m 19,3 km/h (3 Bft) 93,62 %
07.08.2021 20:32 21,0 C 20,0 C 17,8 C 69 % 1002,0 hPa 0,0 l/m 0 min 2 min 14 W/m 19,3 km/h (3 Bft) 93,62 %
07.08.2021 20:34 20,8 C 19,4 C 17,3 C 70 % 1001,9 hPa 0,0 l/m 0 min 2 min 16 W/m 22,5 km/h (4 Bft) 93,62 %
07.08.2021 20:36 20,6 C 18,9 C 16,1 C 71 % 1001,8 hPa 0,0 l/m 0 min 2 min 18 W/m 22,5 km/h (4 Bft) 93,48 %
07.08.2021 20:38 20,3 C 18,9 C 15,6 C 73 % 1001,8 hPa 0,0 l/m 0 min 2 min 18 W/m 19,3 km/h (3 Bft) 93,62 %
07.08.2021 20:40 20,1 C 18,3 C 15,0 C 75 % 1001,7 hPa 0,0 l/m 0 min 2 min 19 W/m 12,9 km/h (3 Bft) 93,62 %
07.08.2021 20:42 19,9 C 18,3 C 15,0 C 75 % 1001,7 hPa 0,0 l/m 0 min 0 min 24 W/m 12,9 km/h (3 Bft) 93,62 %
07.08.2021 20:44 19,7 C 18,3 C 15,0 C 76 % 1001,4 hPa 0,0 l/m 2 min 2 min 26 W/m 6,4 km/h (2 Bft) 95,74 %
07.08.2021 20:46 19,6 C 18,3 C 15,0 C 77 % 1001,4 hPa 0,0 l/m 2 min 0 min 28 W/m 6,4 km/h (2 Bft) 95,74 %
07.08.2021 20:48 19,6 C 18,3 C 15,0 C 77 % 1001,5 hPa 0,0 l/m 2 min 2 min 28 W/m 6,4 km/h (2 Bft) 97,83 %
07.08.2021 20:50 19,5 C 18,3 C 15,0 C 78 % 1001,6 hPa 0,0 l/m 2 min 2 min 26 W/m 3,2 km/h (1 Bft) 95,74 %
07.08.2021 20:52 19,5 C 18,3 C 15,0 C 78 % 1001,6 hPa 0,0 l/m 2 min 0 min 26 W/m 6,4 km/h (2 Bft) 95,74 %
07.08.2021 20:54 19,4 C 18,3 C 15,0 C 78 % 1001,6 hPa 0,0 l/m 2 min 0 min 26 W/m 19,3 km/h (3 Bft) 95,74 %
07.08.2021 20:56 19,3 C 18,3 C 15,0 C 78 % 1001,6 hPa 0,0 l/m 2 min 0 min 24 W/m 9,7 km/h (2 Bft) 95,74 %
07.08.2021 20:58 19,3 C 18,3 C 15,0 C 78 % 1001,6 hPa 0,0 l/m 0 min 0 min 18 W/m 16,1 km/h (3 Bft) 95,74 %
07.08.2021 21:00 19,2 C 18,3 C 15,0 C 78 % 1001,7 hPa 0,0 l/m 0 min 0 min 16 W/m 12,9 km/h (3 Bft) 95,65 %
07.08.2021 21:02 19,1 C 18,3 C 15,6 C 78 % 1001,8 hPa 0,0 l/m 0 min 0 min 13 W/m 9,7 km/h (2 Bft) 93,62 %
07.08.2021 21:04 19,1 C 18,3 C 15,6 C 78 % 1001,9 hPa 0,0 l/m 0 min 0 min 11 W/m 12,9 km/h (3 Bft) 95,74 %
07.08.2021 21:06 19,0 C 17,8 C 15,6 C 78 % 1001,9 hPa 0,0 l/m 0 min 0 min 8 W/m 12,9 km/h (3 Bft) 95,74 %
07.08.2021 21:08 19,0 C 17,8 C 15,6 C 78 % 1002,0 hPa 0,0 l/m 0 min 0 min 5 W/m 16,1 km/h (3 Bft) 95,74 %
07.08.2021 21:10 18,9 C 17,8 C 15,6 C 78 % 1002,1 hPa 0,0 l/m 0 min 0 min 4 W/m 12,9 km/h (3 Bft) 93,62 %
07.08.2021 21:12 18,8 C 17,8 C 15,6 C 78 % 1002,1 hPa 0,0 l/m 0 min 0 min 0 W/m 16,1 km/h (3 Bft) 93,48 %
07.08.2021 21:14 18,8 C 17,8 C 15,6 C 78 % 1002,2 hPa 0,0 l/m 0 min 0 min 0 W/m 12,9 km/h (3 Bft) 91,49 %
07.08.2021 21:16 18,7 C 17,8 C 15,6 C 78 % 1002,2 hPa 0,0 l/m 0 min 0 min 0 W/m 12,9 km/h (3 Bft) 97,87 %
07.08.2021 21:18 18,6 C 17,8 C 15,6 C 78 % 1002,1 hPa 0,0 l/m 0 min 0 min 0 W/m 9,7 km/h (2 Bft) 93,62 %
07.08.2021 21:20 18,6 C 17,8 C 15,6 C 79 % 1002,2 hPa 0,0 l/m 0 min 0 min 0 W/m 6,4 km/h (2 Bft) 95,74 %
07.08.2021 21:22 18,6 C 17,8 C 15,6 C 79 % 1002,2 hPa 0,0 l/m 0 min 0 min 0 W/m 6,4 km/h (2 Bft) 95,74 %
07.08.2021 21:24 18,6 C 17,8 C 15,6 C 79 % 1002,2 hPa 0,0 l/m 0 min 0 min 0 W/m 12,9 km/h (3 Bft) 95,65 %
07.08.2021 21:26 18,6 C 17,8 C 15,6 C 79 % 1002,2 hPa 0,0 l/m 0 min 0 min 0 W/m 6,4 km/h (2 Bft) 93,62 %
07.08.2021 21:28 18,5 C 17,8 C 15,6 C 79 % 1002,2 hPa 0,0 l/m 0 min 0 min 0 W/m 9,7 km/h (2 Bft) 95,74 %
07.08.2021 21:30 18,5 C 17,8 C 15,6 C 79 % 1002,2 hPa 0,0 l/m 0 min 0 min 0 W/m 9,7 km/h (2 Bft) 95,74 %
07.08.2021 21:32 18,5 C 17,8 C 15,6 C 80 % 1002,1 hPa 0,0 l/m 0 min 0 min 0 W/m 6,4 km/h (2 Bft) 95,74 %
07.08.2021 21:34 18,5 C 17,8 C 15,6 C 80 % 1002,1 hPa 0,0 l/m 0 min 0 min 0 W/m 9,7 km/h (2 Bft) 93,62 %
07.08.2021 21:36 18,5 C 17,8 C 15,6 C 80 % 1002,1 hPa 0,0 l/m 0 min 0 min 0 W/m 3,2 km/h (1 Bft) 95,65 %
07.08.2021 21:38 18,5 C 17,8 C 15,6 C 80 % 1002,2 hPa 0,0 l/m 0 min 0 min 0 W/m 6,4 km/h (2 Bft) 95,74 %
07.08.2021 21:40 18,5 C 17,8 C 15,6 C 80 % 1002,2 hPa 0,0 l/m 0 min 0 min 0 W/m 9,7 km/h (2 Bft) 95,74 %
07.08.2021 21:42 18,5 C 17,8 C 15,6 C 80 % 1002,1 hPa 0,0 l/m 0 min 0 min 0 W/m 6,4 km/h (2 Bft) 93,62 %
07.08.2021 21:44 18,5 C 17,8 C 15,6 C 80 % 1002,1 hPa 0,0 l/m 0 min 0 min 0 W/m 6,4 km/h (2 Bft) 93,62 %
07.08.2021 21:46 18,5 C 17,8 C 15,6 C 80 % 1002,1 hPa 0,0 l/m 0 min 0 min 0 W/m 6,4 km/h (2 Bft) 95,74 %
07.08.2021 21:48 18,5 C 17,8 C 15,6 C 80 % 1002,1 hPa 0,0 l/m 0 min 0 min 0 W/m 9,7 km/h (2 Bft) 95,65 %
07.08.2021 21:50 18,5 C 17,8 C 15,6 C 80 % 1002,1 hPa 0,0 l/m 0 min 0 min 0 W/m 12,9 km/h (3 Bft) 97,87 %
07.08.2021 21:52 18,4 C 17,8 C 15,6 C 80 % 1002,2 hPa 0,0 l/m 0 min 0 min 0 W/m 9,7 km/h (2 Bft) 97,87 %
07.08.2021 21:54 18,5 C 17,8 C 15,6 C 80 % 1002,2 hPa 0,0 l/m 0 min 0 min 0 W/m 9,7 km/h (2 Bft) 97,87 %
07.08.2021 21:56 18,5 C 17,8 C 15,6 C 80 % 1002,2 hPa 0,0 l/m 0 min 0 min 0 W/m 25,7 km/h (4 Bft) 97,87 %
07.08.2021 21:58 18,4 C 17,8 C 15,6 C 80 % 1002,3 hPa 0,0 l/m 0 min 0 min 0 W/m 9,7 km/h (2 Bft) 97,87 %
07.08.2021 22:00 18,5 C 17,8 C 15,6 C 80 % 1002,2 hPa 0,0 l/m 0 min 0 min 0 W/m 19,3 km/h (3 Bft) 97,83 %
07.08.2021 22:02 18,5 C 17,8 C 15,6 C 80 % 1002,2 hPa 0,0 l/m 0 min 0 min 0 W/m 12,9 km/h (3 Bft) 97,87 %
07.08.2021 22:04 18,5 C 17,8 C 15,6 C 80 % 1002,3 hPa 0,0 l/m 0 min 0 min 0 W/m 16,1 km/h (3 Bft) 97,87 %
07.08.2021 22:06 18,5 C 17,8 C 15,6 C 80 % 1002,3 hPa 0,0 l/m 0 min 0 min 0 W/m 16,1 km/h (3 Bft) 97,87 %
07.08.2021 22:08 18,5 C 17,8 C 15,6 C 80 % 1002,3 hPa 0,0 l/m 0 min 0 min 0 W/m 9,7 km/h (2 Bft) 97,87 %
07.08.2021 22:10 18,5 C 17,8 C 15,6 C 80 % 1002,3 hPa 0,0 l/m 0 min 0 min 0 W/m 12,9 km/h (3 Bft) 97,83 %
07.08.2021 22:12 18,5 C 17,8 C 15,6 C 80 % 1002,3 hPa 0,0 l/m 0 min 0 min 0 W/m 16,1 km/h (3 Bft) 97,87 %
07.08.2021 22:14 18,5 C 17,8 C 15,6 C 80 % 1002,3 hPa 0,0 l/m 0 min 0 min 0 W/m 9,7 km/h (2 Bft) 97,87 %
07.08.2021 22:16 18,5 C 17,8 C 15,6 C 80 % 1002,4 hPa 0,0 l/m 0 min 0 min 0 W/m 16,1 km/h (3 Bft) 95,74 %
07.08.2021 22:18 18,5 C 17,8 C 15,6 C 80 % 1002,4 hPa 0,0 l/m 0 min 0 min 0 W/m 12,9 km/h (3 Bft) 97,87 %
07.08.2021 22:20 18,5 C 17,8 C 15,6 C 80 % 1002,4 hPa 0,0 l/m 0 min 0 min 0 W/m 9,7 km/h (2 Bft) 97,87 %
07.08.2021 22:22 18,5 C 17,8 C 15,6 C 80 % 1002,4 hPa 0,0 l/m 0 min 0 min 0 W/m 12,9 km/h (3 Bft) 95,65 %
07.08.2021 22:24 18,5 C 17,8 C 15,6 C 80 % 1002,4 hPa 0,0 l/m 0 min 0 min 0 W/m 9,7 km/h (2 Bft) 95,74 %
07.08.2021 22:26 18,5 C 17,8 C 15,6 C 80 % 1002,4 hPa 0,0 l/m 0 min 0 min 0 W/m 16,1 km/h (3 Bft) 97,87 %
07.08.2021 22:28 18,5 C 17,8 C 15,6 C 80 % 1002,5 hPa 0,0 l/m 0 min 0 min 0 W/m 16,1 km/h (3 Bft) 95,74 %
07.08.2021 22:30 18,5 C 17,8 C 15,6 C 80 % 1002,5 hPa 0,0 l/m 0 min 0 min 0 W/m 19,3 km/h (3 Bft) 97,87 %
07.08.2021 22:32 18,5 C 17,8 C 15,6 C 79 % 1002,5 hPa 0,0 l/m 0 min 0 min 0 W/m 32,2 km/h (5 Bft) 97,87 %
07.08.2021 22:34 18,5 C 17,8 C 15,6 C 79 % 1002,5 hPa 0,0 l/m 0 min 0 min 0 W/m 22,5 km/h (4 Bft) 97,83 %
07.08.2021 22:36 18,5 C 17,8 C 15,6 C 79 % 1002,5 hPa 0,0 l/m 0 min 0 min 0 W/m 22,5 km/h (4 Bft) 100,00 %
07.08.2021 22:38 18,5 C 17,8 C 15,6 C 79 % 1002,5 hPa 0,0 l/m 0 min 0 min 0 W/m 22,5 km/h (4 Bft) 100,00 %
07.08.2021 22:40 18,5 C 17,8 C 15,6 C 79 % 1002,5 hPa 0,0 l/m 0 min 0 min 0 W/m 29,0 km/h (5 Bft) 100,00 %
07.08.2021 22:42 18,5 C 17,8 C 15,6 C 79 % 1002,6 hPa 0,0 l/m 0 min 0 min 0 W/m 22,5 km/h (4 Bft) 100,00 %
07.08.2021 22:44 18,5 C 17,8 C 15,6 C 79 % 1002,6 hPa 0,0 l/m 0 min 0 min 0 W/m 16,1 km/h (3 Bft) 100,00 %
07.08.2021 22:46 18,5 C 17,8 C 15,6 C 79 % 1002,6 hPa 0,0 l/m 0 min 0 min 0 W/m 32,2 km/h (5 Bft) 100,00 %
07.08.2021 22:48 18,5 C 17,8 C 15,6 C 79 % 1002,7 hPa 0,0 l/m 0 min 0 min 0 W/m 19,3 km/h (3 Bft) 100,00 %
07.08.2021 22:50 18,5 C 17,8 C 15,6 C 79 % 1002,6 hPa 0,0 l/m 0 min 0 min 0 W/m 32,2 km/h (5 Bft) 100,00 %
07.08.2021 22:52 18,5 C 17,8 C 15,6 C 80 % 1002,7 hPa 0,0 l/m 0 min 0 min 0 W/m 19,3 km/h (3 Bft) 100,00 %
07.08.2021 22:54 18,4 C 17,2 C 15,6 C 80 % 1002,7 hPa 0,0 l/m 0 min 0 min 0 W/m 32,2 km/h (5 Bft) 100,00 %
07.08.2021 22:56 18,4 C 17,2 C 15,6 C 80 % 1002,7 hPa 0,0 l/m 0 min 0 min 0 W/m 22,5 km/h (4 Bft) 100,00 %
07.08.2021 22:58 18,4 C 17,2 C 15,6 C 80 % 1002,7 hPa 0,0 l/m 0 min 0 min 0 W/m 19,3 km/h (3 Bft) 100,00 %
07.08.2021 23:00 18,3 C 17,2 C 15,6 C 80 % 1002,6 hPa 0,0 l/m 0 min 0 min 0 W/m 16,1 km/h (3 Bft) 100,00 %
07.08.2021 23:02 18,3 C 17,2 C 15,0 C 80 % 1002,7 hPa 0,0 l/m 0 min 0 min 0 W/m 16,1 km/h (3 Bft) 97,87 %
07.08.2021 23:04 18,3 C 17,2 C 15,0 C 81 % 1002,7 hPa 0,0 l/m 0 min 0 min 0 W/m 19,3 km/h (3 Bft) 100,00 %
07.08.2021 23:06 18,2 C 17,2 C 15,0 C 81 % 1002,8 hPa 0,0 l/m 0 min 0 min 0 W/m 29,0 km/h (5 Bft) 100,00 %
07.08.2021 23:08 18,1 C 17,2 C 15,0 C 81 % 1002,7 hPa 0,0 l/m 0 min 0 min 0 W/m 19,3 km/h (3 Bft) 100,00 %
07.08.2021 23:10 18,1 C 17,2 C 15,0 C 81 % 1002,8 hPa 0,0 l/m 0 min 0 min 0 W/m 22,5 km/h (4 Bft) 100,00 %
07.08.2021 23:12 18,1 C 17,2 C 15,0 C 81 % 1002,8 hPa 0,0 l/m 0 min 0 min 0 W/m 16,1 km/h (3 Bft) 95,74 %
07.08.2021 23:14 18,1 C 17,2 C 15,0 C 81 % 1002,8 hPa 0,0 l/m 0 min 0 min 0 W/m 19,3 km/h (3 Bft) 100,00 %
07.08.2021 23:16 18,1 C 17,2 C 15,0 C 81 % 1002,8 hPa 0,0 l/m 0 min 0 min 0 W/m 12,9 km/h (3 Bft) 100,00 %
07.08.2021 23:18 18,0 C 17,2 C 15,0 C 81 % 1002,9 hPa 0,0 l/m 0 min 0 min 0 W/m 19,3 km/h (3 Bft) 97,87 %
07.08.2021 23:20 18,0 C 17,2 C 15,0 C 82 % 1003,0 hPa 0,0 l/m 0 min 0 min 0 W/m 19,3 km/h (3 Bft) 97,62 %
07.08.2021 23:22 18,0 C 16,7 C 15,0 C 82 % 1002,9 hPa 0,0 l/m 0 min 0 min 0 W/m 16,1 km/h (3 Bft) 95,74 %
07.08.2021 23:24 17,9 C 16,7 C 15,0 C 82 % 1003,0 hPa 0,0 l/m 0 min 0 min 0 W/m 22,5 km/h (4 Bft) 96,36 %
07.08.2021 23:26 17,9 C 16,7 C 15,0 C 82 % 1003,0 hPa 0,0 l/m 0 min 0 min 0 W/m 19,3 km/h (3 Bft) 95,74 %
07.08.2021 23:28 17,9 C 16,7 C 15,0 C 83 % 1003,0 hPa 0,0 l/m 0 min 0 min 0 W/m 12,9 km/h (3 Bft) 95,74 %
07.08.2021 23:30 17,9 C 16,7 C 15,0 C 83 % 1003,0 hPa 0,0 l/m 0 min 0 min 0 W/m 19,3 km/h (3 Bft) 97,87 %
07.08.2021 23:32 17,8 C 16,7 C 15,0 C 83 % 1003,0 hPa 0,0 l/m 0 min 0 min 0 W/m 16,1 km/h (3 Bft) 97,87 %
07.08.2021 23:34 17,8 C 16,7 C 15,0 C 83 % 1003,1 hPa 0,0 l/m 0 min 0 min 0 W/m 12,9 km/h (3 Bft) 97,83 %
07.08.2021 23:36 17,8 C 16,7 C 14,5 C 83 % 1003,2 hPa 0,0 l/m 0 min 0 min 0 W/m 19,3 km/h (3 Bft) 97,87 %
07.08.2021 23:38 17,7 C 16,7 C 14,5 C 83 % 1003,1 hPa 0,0 l/m 0 min 0 min 0 W/m 19,3 km/h (3 Bft) 97,87 %
07.08.2021 23:40 17,6 C 16,7 C 14,5 C 83 % 1003,2 hPa 0,0 l/m 0 min 0 min 0 W/m 29,0 km/h (5 Bft) 97,87 %
07.08.2021 23:42 17,6 C 16,7 C 14,5 C 84 % 1003,2 hPa 0,0 l/m 0 min 0 min 0 W/m 22,5 km/h (4 Bft) 95,74 %
07.08.2021 23:44 17,6 C 16,7 C 14,5 C 84 % 1003,2 hPa 0,0 l/m 0 min 0 min 0 W/m 16,1 km/h (3 Bft) 97,87 %
07.08.2021 23:46 17,5 C 16,7 C 14,5 C 84 % 1003,3 hPa 0,0 l/m 0 min 0 min 0 W/m 19,3 km/h (3 Bft) 97,83 %
07.08.2021 23:48 17,5 C 16,7 C 14,5 C 84 % 1003,4 hPa 0,0 l/m 0 min 0 min 0 W/m 22,5 km/h (4 Bft) 97,87 %
07.08.2021 23:50 17,5 C 16,7 C 14,5 C 84 % 1003,4 hPa 0,0 l/m 0 min 0 min 0 W/m 29,0 km/h (5 Bft) 95,74 %
07.08.2021 23:52 17,4 C 16,7 C 14,5 C 84 % 1003,3 hPa 0,0 l/m 0 min 0 min 0 W/m 22,5 km/h (4 Bft) 97,87 %
07.08.2021 23:54 17,4 C 16,7 C 14,5 C 84 % 1003,3 hPa 0,0 l/m 0 min 0 min 0 W/m 22,5 km/h (4 Bft) 97,87 %
07.08.2021 23:56 17,4 C 16,7 C 14,5 C 84 % 1003,4 hPa 0,0 l/m 0 min 0 min 0 W/m 29,0 km/h (5 Bft) 97,78 %
07.08.2021 23:58 17,4 C 16,7 C 14,5 C 83 % 1003,3 hPa 0,0 l/m 0 min 0 min 0 W/m 25,7 km/h (4 Bft) 93,62 %
_ Min-Zeit 05:54 04:04 04:36 15:12 17:38 - - - - 01:14 03:44
Minimum _ 14,4 C 13,9 C 14,5 C 56 % 1000,9 hPa - - - - 0,0 km/h (0 Bft) 72,34 %
_ Max-Zeit 14:54 16:14 12:12 04:22 01:08 01:08 12:08 00:10 14:32 19:14 00:08
Maximum _ 24,0 C 28,3 C 27,8 C 96 % 1005,5 hPa 0,2 l/m 4 min 2 min 1085 W/m 48,3 km/h
SO (6 Bft)
100,00 %
Durchschnitt _ 18,9 C 18,8 C 17,8 C 80 % 1003,2 hPa #1,0 l/m #6:04 h #1:13 h 295 W/m 13,7 km/h (3 Bft) 97,51 %
© 2021 W. Hausmann